<?xml version="1.0" encoding="UTF-8" standalone="no" ?>
<gpx xmlns="http://www.topografix.com/GPX/1/1" xmlns:xsi="http://www.w3.org/2001/XMLSchema-instance" xsi:schemaLocation="http://www.topografix.com/GPX/1/1 http://www.topografix.com/GPX/1/1/gpx.xsd" version="1.1" creator="VisuGPX - https://www.visugpx.com">
  <metadata>
    <name>Longes</name>
    <desc><![CDATA[Boucle depuis Longes (Pilat)]]></desc>
  </metadata>
  <trk>
    <name><![CDATA[Rando autour de Longes]]></name>
    <trkseg>
      <trkpt lat="45.5145" lon="4.69775">
        <ele>387</ele>
        <time>2011-04-24T13:07:33.000Z</time>
      </trkpt>
      <trkpt lat="45.5145" lon="4.69775">
        <ele>387</ele>
        <time>2011-04-24T13:07:34.000Z</time>
      </trkpt>
      <trkpt lat="45.5145" lon="4.69775">
        <ele>383.60000610352</ele>
        <time>2011-04-24T13:07:46.000Z</time>
      </trkpt>
      <trkpt lat="45.51451" lon="4.69774">
        <ele>384</ele>
        <time>2011-04-24T13:07:47.000Z</time>
      </trkpt>
      <trkpt lat="45.5145" lon="4.69771">
        <ele>383.60000610352</ele>
        <time>2011-04-24T13:07:52.000Z</time>
      </trkpt>
      <trkpt lat="45.51442" lon="4.69754">
        <ele>381.20001220703</ele>
        <time>2011-04-24T13:08:01.000Z</time>
      </trkpt>
      <trkpt lat="45.5144" lon="4.69747">
        <ele>378.79998779297</ele>
        <time>2011-04-24T13:08:09.000Z</time>
      </trkpt>
      <trkpt lat="45.51439" lon="4.69746">
        <ele>377.79998779297</ele>
        <time>2011-04-24T13:08:14.000Z</time>
      </trkpt>
      <trkpt lat="45.51436" lon="4.69739">
        <ele>376.79998779297</ele>
        <time>2011-04-24T13:08:16.000Z</time>
      </trkpt>
      <trkpt lat="45.51433" lon="4.6973">
        <ele>376.79998779297</ele>
        <time>2011-04-24T13:08:19.000Z</time>
      </trkpt>
      <trkpt lat="45.5142" lon="4.69705">
        <ele>371.60000610352</ele>
        <time>2011-04-24T13:08:32.000Z</time>
      </trkpt>
      <trkpt lat="45.5142" lon="4.69704">
        <ele>375</ele>
        <time>2011-04-24T13:08:33.000Z</time>
      </trkpt>
      <trkpt lat="45.51419" lon="4.697">
        <ele>360</ele>
        <time>2011-04-24T13:08:36.000Z</time>
      </trkpt>
      <trkpt lat="45.51419" lon="4.69699">
        <ele>376.39999389648</ele>
        <time>2011-04-24T13:08:37.000Z</time>
      </trkpt>
      <trkpt lat="45.51418" lon="4.69693">
        <ele>372.60000610352</ele>
        <time>2011-04-24T13:08:40.000Z</time>
      </trkpt>
      <trkpt lat="45.51418" lon="4.69692">
        <ele>377.39999389648</ele>
        <time>2011-04-24T13:08:41.000Z</time>
      </trkpt>
      <trkpt lat="45.51417" lon="4.6969">
        <ele>373.60000610352</ele>
        <time>2011-04-24T13:08:42.000Z</time>
      </trkpt>
      <trkpt lat="45.51411" lon="4.69666">
        <ele>372</ele>
        <time>2011-04-24T13:08:56.000Z</time>
      </trkpt>
      <trkpt lat="45.51407" lon="4.69644">
        <ele>371.60000610352</ele>
        <time>2011-04-24T13:09:07.000Z</time>
      </trkpt>
      <trkpt lat="45.51405" lon="4.69639">
        <ele>371.60000610352</ele>
        <time>2011-04-24T13:09:11.000Z</time>
      </trkpt>
      <trkpt lat="45.51404" lon="4.69632">
        <ele>372</ele>
        <time>2011-04-24T13:09:15.000Z</time>
      </trkpt>
      <trkpt lat="45.51401" lon="4.69608">
        <ele>372.60000610352</ele>
        <time>2011-04-24T13:09:29.000Z</time>
      </trkpt>
      <trkpt lat="45.514" lon="4.69581">
        <ele>373</ele>
        <time>2011-04-24T13:09:42.000Z</time>
      </trkpt>
      <trkpt lat="45.51391" lon="4.69562">
        <ele>374</ele>
        <time>2011-04-24T13:09:55.000Z</time>
      </trkpt>
      <trkpt lat="45.51379" lon="4.69543">
        <ele>376.79998779297</ele>
        <time>2011-04-24T13:10:10.000Z</time>
      </trkpt>
      <trkpt lat="45.51374" lon="4.69536">
        <ele>377.39999389648</ele>
        <time>2011-04-24T13:10:16.000Z</time>
      </trkpt>
      <trkpt lat="45.51365" lon="4.69519">
        <ele>379.20001220703</ele>
        <time>2011-04-24T13:10:33.000Z</time>
      </trkpt>
      <trkpt lat="45.51351" lon="4.695">
        <ele>381.60000610352</ele>
        <time>2011-04-24T13:10:49.000Z</time>
      </trkpt>
      <trkpt lat="45.51349" lon="4.69496">
        <ele>381.20001220703</ele>
        <time>2011-04-24T13:10:51.000Z</time>
      </trkpt>
      <trkpt lat="45.51334" lon="4.69475">
        <ele>383.60000610352</ele>
        <time>2011-04-24T13:11:08.000Z</time>
      </trkpt>
      <trkpt lat="45.51326" lon="4.69466">
        <ele>385.60000610352</ele>
        <time>2011-04-24T13:11:17.000Z</time>
      </trkpt>
      <trkpt lat="45.51308" lon="4.69447">
        <ele>387.39999389648</ele>
        <time>2011-04-24T13:11:34.000Z</time>
      </trkpt>
      <trkpt lat="45.51296" lon="4.69436">
        <ele>387.39999389648</ele>
        <time>2011-04-24T13:11:48.000Z</time>
      </trkpt>
      <trkpt lat="45.51293" lon="4.69432">
        <ele>388.39999389648</ele>
        <time>2011-04-24T13:11:51.000Z</time>
      </trkpt>
      <trkpt lat="45.51274" lon="4.69423">
        <ele>388</ele>
        <time>2011-04-24T13:12:06.000Z</time>
      </trkpt>
      <trkpt lat="45.51267" lon="4.69419">
        <ele>388</ele>
        <time>2011-04-24T13:12:11.000Z</time>
      </trkpt>
      <trkpt lat="45.51248" lon="4.69408">
        <ele>388</ele>
        <time>2011-04-24T13:12:28.000Z</time>
      </trkpt>
      <trkpt lat="45.51245" lon="4.69407">
        <ele>383.20001220703</ele>
        <time>2011-04-24T13:12:31.000Z</time>
      </trkpt>
      <trkpt lat="45.51239" lon="4.69403">
        <ele>388</ele>
        <time>2011-04-24T13:12:36.000Z</time>
      </trkpt>
      <trkpt lat="45.51226" lon="4.69392">
        <ele>388</ele>
        <time>2011-04-24T13:12:49.000Z</time>
      </trkpt>
      <trkpt lat="45.51224" lon="4.6939">
        <ele>388</ele>
        <time>2011-04-24T13:12:52.000Z</time>
      </trkpt>
      <trkpt lat="45.51207" lon="4.69378">
        <ele>388.39999389648</ele>
        <time>2011-04-24T13:13:09.000Z</time>
      </trkpt>
      <trkpt lat="45.51202" lon="4.69371">
        <ele>388</ele>
        <time>2011-04-24T13:13:16.000Z</time>
      </trkpt>
      <trkpt lat="45.51199" lon="4.69368">
        <ele>394.20001220703</ele>
        <time>2011-04-24T13:13:18.000Z</time>
      </trkpt>
      <trkpt lat="45.51199" lon="4.69367">
        <ele>388.79998779297</ele>
        <time>2011-04-24T13:13:19.000Z</time>
      </trkpt>
      <trkpt lat="45.51183" lon="4.69351">
        <ele>387.39999389648</ele>
        <time>2011-04-24T13:13:33.000Z</time>
      </trkpt>
      <trkpt lat="45.5117" lon="4.69336">
        <ele>387</ele>
        <time>2011-04-24T13:13:47.000Z</time>
      </trkpt>
      <trkpt lat="45.51159" lon="4.69331">
        <ele>386.39999389648</ele>
        <time>2011-04-24T13:13:56.000Z</time>
      </trkpt>
      <trkpt lat="45.51151" lon="4.69328">
        <ele>386.39999389648</ele>
        <time>2011-04-24T13:14:01.000Z</time>
      </trkpt>
      <trkpt lat="45.51141" lon="4.69318">
        <ele>385</ele>
        <time>2011-04-24T13:14:12.000Z</time>
      </trkpt>
      <trkpt lat="45.51129" lon="4.69311">
        <ele>379.79998779297</ele>
        <time>2011-04-24T13:14:21.000Z</time>
      </trkpt>
      <trkpt lat="45.51128" lon="4.69311">
        <ele>385</ele>
        <time>2011-04-24T13:14:22.000Z</time>
      </trkpt>
      <trkpt lat="45.51117" lon="4.69306">
        <ele>380.20001220703</ele>
        <time>2011-04-24T13:14:33.000Z</time>
      </trkpt>
      <trkpt lat="45.51115" lon="4.69305">
        <ele>383.20001220703</ele>
        <time>2011-04-24T13:14:34.000Z</time>
      </trkpt>
      <trkpt lat="45.51098" lon="4.69298">
        <ele>379.79998779297</ele>
        <time>2011-04-24T13:14:50.000Z</time>
      </trkpt>
      <trkpt lat="45.51093" lon="4.69292">
        <ele>379.20001220703</ele>
        <time>2011-04-24T13:14:55.000Z</time>
      </trkpt>
      <trkpt lat="45.51081" lon="4.69285">
        <ele>377.39999389648</ele>
        <time>2011-04-24T13:15:05.000Z</time>
      </trkpt>
      <trkpt lat="45.51077" lon="4.69284">
        <ele>376.79998779297</ele>
        <time>2011-04-24T13:15:08.000Z</time>
      </trkpt>
      <trkpt lat="45.5106" lon="4.69286">
        <ele>371.60000610352</ele>
        <time>2011-04-24T13:15:22.000Z</time>
      </trkpt>
      <trkpt lat="45.51059" lon="4.69285">
        <ele>375</ele>
        <time>2011-04-24T13:15:23.000Z</time>
      </trkpt>
      <trkpt lat="45.5104" lon="4.69283">
        <ele>373.60000610352</ele>
        <time>2011-04-24T13:15:39.000Z</time>
      </trkpt>
      <trkpt lat="45.5102" lon="4.69281">
        <ele>373</ele>
        <time>2011-04-24T13:15:54.000Z</time>
      </trkpt>
      <trkpt lat="45.50998" lon="4.69279">
        <ele>373.60000610352</ele>
        <time>2011-04-24T13:16:12.000Z</time>
      </trkpt>
      <trkpt lat="45.50982" lon="4.69276">
        <ele>370.20001220703</ele>
        <time>2011-04-24T13:16:25.000Z</time>
      </trkpt>
      <trkpt lat="45.50973" lon="4.69274">
        <ele>370.20001220703</ele>
        <time>2011-04-24T13:16:32.000Z</time>
      </trkpt>
      <trkpt lat="45.50956" lon="4.69248">
        <ele>370.20001220703</ele>
        <time>2011-04-24T13:16:51.000Z</time>
      </trkpt>
      <trkpt lat="45.50957" lon="4.69231">
        <ele>370.60000610352</ele>
        <time>2011-04-24T13:17:08.000Z</time>
      </trkpt>
      <trkpt lat="45.50955" lon="4.69229">
        <ele>370.20001220703</ele>
        <time>2011-04-24T13:17:32.000Z</time>
      </trkpt>
      <trkpt lat="45.5095" lon="4.69223">
        <ele>371.60000610352</ele>
        <time>2011-04-24T13:17:39.000Z</time>
      </trkpt>
      <trkpt lat="45.50943" lon="4.69219">
        <ele>372</ele>
        <time>2011-04-24T13:18:01.000Z</time>
      </trkpt>
      <trkpt lat="45.5094" lon="4.69215">
        <ele>374.39999389648</ele>
        <time>2011-04-24T13:18:13.000Z</time>
      </trkpt>
      <trkpt lat="45.50932" lon="4.69209">
        <ele>376.79998779297</ele>
        <time>2011-04-24T13:18:21.000Z</time>
      </trkpt>
      <trkpt lat="45.5093" lon="4.69207">
        <ele>377.79998779297</ele>
        <time>2011-04-24T13:18:24.000Z</time>
      </trkpt>
      <trkpt lat="45.50926" lon="4.69202">
        <ele>378.79998779297</ele>
        <time>2011-04-24T13:18:30.000Z</time>
      </trkpt>
      <trkpt lat="45.5092" lon="4.69192">
        <ele>382.20001220703</ele>
        <time>2011-04-24T13:18:46.000Z</time>
      </trkpt>
      <trkpt lat="45.50923" lon="4.69177">
        <ele>384.60000610352</ele>
        <time>2011-04-24T13:18:58.000Z</time>
      </trkpt>
      <trkpt lat="45.50913" lon="4.69162">
        <ele>387.39999389648</ele>
        <time>2011-04-24T13:19:13.000Z</time>
      </trkpt>
      <trkpt lat="45.50912" lon="4.6916">
        <ele>388</ele>
        <time>2011-04-24T13:19:15.000Z</time>
      </trkpt>
      <trkpt lat="45.5091" lon="4.69154">
        <ele>389.39999389648</ele>
        <time>2011-04-24T13:19:21.000Z</time>
      </trkpt>
      <trkpt lat="45.50898" lon="4.69137">
        <ele>392.20001220703</ele>
        <time>2011-04-24T13:19:36.000Z</time>
      </trkpt>
      <trkpt lat="45.5089" lon="4.69127">
        <ele>394.60000610352</ele>
        <time>2011-04-24T13:19:48.000Z</time>
      </trkpt>
      <trkpt lat="45.50879" lon="4.69117">
        <ele>397.60000610352</ele>
        <time>2011-04-24T13:20:02.000Z</time>
      </trkpt>
      <trkpt lat="45.50878" lon="4.69116">
        <ele>398</ele>
        <time>2011-04-24T13:20:03.000Z</time>
      </trkpt>
      <trkpt lat="45.50876" lon="4.69114">
        <ele>398.60000610352</ele>
        <time>2011-04-24T13:20:05.000Z</time>
      </trkpt>
      <trkpt lat="45.50871" lon="4.69112">
        <ele>404.20001220703</ele>
        <time>2011-04-24T13:20:12.000Z</time>
      </trkpt>
      <trkpt lat="45.5087" lon="4.69111">
        <ele>401</ele>
        <time>2011-04-24T13:20:13.000Z</time>
      </trkpt>
      <trkpt lat="45.50869" lon="4.6911">
        <ele>401</ele>
        <time>2011-04-24T13:20:14.000Z</time>
      </trkpt>
      <trkpt lat="45.50867" lon="4.69108">
        <ele>401</ele>
        <time>2011-04-24T13:20:17.000Z</time>
      </trkpt>
      <trkpt lat="45.50864" lon="4.69105">
        <ele>401.39999389648</ele>
        <time>2011-04-24T13:20:21.000Z</time>
      </trkpt>
      <trkpt lat="45.50861" lon="4.69103">
        <ele>402.79998779297</ele>
        <time>2011-04-24T13:20:25.000Z</time>
      </trkpt>
      <trkpt lat="45.50848" lon="4.69094">
        <ele>405.20001220703</ele>
        <time>2011-04-24T13:20:41.000Z</time>
      </trkpt>
      <trkpt lat="45.50845" lon="4.69093">
        <ele>402.39999389648</ele>
        <time>2011-04-24T13:20:46.000Z</time>
      </trkpt>
      <trkpt lat="45.50843" lon="4.69092">
        <ele>406.60000610352</ele>
        <time>2011-04-24T13:20:47.000Z</time>
      </trkpt>
      <trkpt lat="45.50834" lon="4.6909">
        <ele>408.20001220703</ele>
        <time>2011-04-24T13:20:57.000Z</time>
      </trkpt>
      <trkpt lat="45.5083" lon="4.69088">
        <ele>413</ele>
        <time>2011-04-24T13:21:01.000Z</time>
      </trkpt>
      <trkpt lat="45.50829" lon="4.69088">
        <ele>408.60000610352</ele>
        <time>2011-04-24T13:21:02.000Z</time>
      </trkpt>
      <trkpt lat="45.50825" lon="4.69086">
        <ele>413.39999389648</ele>
        <time>2011-04-24T13:21:08.000Z</time>
      </trkpt>
      <trkpt lat="45.50825" lon="4.69085">
        <ele>409</ele>
        <time>2011-04-24T13:21:09.000Z</time>
      </trkpt>
      <trkpt lat="45.50809" lon="4.69082">
        <ele>412</ele>
        <time>2011-04-24T13:21:24.000Z</time>
      </trkpt>
      <trkpt lat="45.50805" lon="4.69082">
        <ele>414.79998779297</ele>
        <time>2011-04-24T13:21:28.000Z</time>
      </trkpt>
      <trkpt lat="45.50792" lon="4.69085">
        <ele>415.39999389648</ele>
        <time>2011-04-24T13:21:44.000Z</time>
      </trkpt>
      <trkpt lat="45.50789" lon="4.69085">
        <ele>415.79998779297</ele>
        <time>2011-04-24T13:21:48.000Z</time>
      </trkpt>
      <trkpt lat="45.50784" lon="4.69081">
        <ele>411</ele>
        <time>2011-04-24T13:21:52.000Z</time>
      </trkpt>
      <trkpt lat="45.50783" lon="4.69081">
        <ele>417.20001220703</ele>
        <time>2011-04-24T13:21:53.000Z</time>
      </trkpt>
      <trkpt lat="45.50779" lon="4.69082">
        <ele>416.79998779297</ele>
        <time>2011-04-24T13:21:58.000Z</time>
      </trkpt>
      <trkpt lat="45.50769" lon="4.69081">
        <ele>419.20001220703</ele>
        <time>2011-04-24T13:22:08.000Z</time>
      </trkpt>
      <trkpt lat="45.50764" lon="4.6908">
        <ele>419.60000610352</ele>
        <time>2011-04-24T13:22:13.000Z</time>
      </trkpt>
      <trkpt lat="45.50755" lon="4.69079">
        <ele>421</ele>
        <time>2011-04-24T13:22:25.000Z</time>
      </trkpt>
      <trkpt lat="45.50752" lon="4.69079">
        <ele>422</ele>
        <time>2011-04-24T13:22:27.000Z</time>
      </trkpt>
      <trkpt lat="45.50739" lon="4.69079">
        <ele>425</ele>
        <time>2011-04-24T13:22:42.000Z</time>
      </trkpt>
      <trkpt lat="45.50736" lon="4.69079">
        <ele>426</ele>
        <time>2011-04-24T13:22:47.000Z</time>
      </trkpt>
      <trkpt lat="45.50722" lon="4.69076">
        <ele>427.79998779297</ele>
        <time>2011-04-24T13:23:02.000Z</time>
      </trkpt>
      <trkpt lat="45.50712" lon="4.69075">
        <ele>430.20001220703</ele>
        <time>2011-04-24T13:23:15.000Z</time>
      </trkpt>
      <trkpt lat="45.50713" lon="4.69077">
        <ele>430.79998779297</ele>
        <time>2011-04-24T13:23:34.000Z</time>
      </trkpt>
      <trkpt lat="45.50713" lon="4.69077">
        <ele>425</ele>
        <time>2011-04-24T13:23:37.000Z</time>
      </trkpt>
      <trkpt lat="45.50713" lon="4.69077">
        <ele>430.79998779297</ele>
        <time>2011-04-24T13:23:38.000Z</time>
      </trkpt>
      <trkpt lat="45.50701" lon="4.69073">
        <ele>432.60000610352</ele>
        <time>2011-04-24T13:23:53.000Z</time>
      </trkpt>
      <trkpt lat="45.50697" lon="4.69071">
        <ele>433.60000610352</ele>
        <time>2011-04-24T13:23:57.000Z</time>
      </trkpt>
      <trkpt lat="45.50678" lon="4.69059">
        <ele>435</ele>
        <time>2011-04-24T13:24:13.000Z</time>
      </trkpt>
      <trkpt lat="45.50664" lon="4.69052">
        <ele>438</ele>
        <time>2011-04-24T13:24:27.000Z</time>
      </trkpt>
      <trkpt lat="45.50652" lon="4.69045">
        <ele>439.79998779297</ele>
        <time>2011-04-24T13:24:40.000Z</time>
      </trkpt>
      <trkpt lat="45.50638" lon="4.69037">
        <ele>441.79998779297</ele>
        <time>2011-04-24T13:24:53.000Z</time>
      </trkpt>
      <trkpt lat="45.50633" lon="4.69031">
        <ele>443.20001220703</ele>
        <time>2011-04-24T13:24:59.000Z</time>
      </trkpt>
      <trkpt lat="45.50624" lon="4.69027">
        <ele>444.20001220703</ele>
        <time>2011-04-24T13:25:10.000Z</time>
      </trkpt>
      <trkpt lat="45.5062" lon="4.69026">
        <ele>445.20001220703</ele>
        <time>2011-04-24T13:25:15.000Z</time>
      </trkpt>
      <trkpt lat="45.50618" lon="4.69025">
        <ele>444.60000610352</ele>
        <time>2011-04-24T13:25:17.000Z</time>
      </trkpt>
      <trkpt lat="45.50603" lon="4.69013">
        <ele>447.60000610352</ele>
        <time>2011-04-24T13:25:30.000Z</time>
      </trkpt>
      <trkpt lat="45.50596" lon="4.69005">
        <ele>448</ele>
        <time>2011-04-24T13:25:39.000Z</time>
      </trkpt>
      <trkpt lat="45.5058" lon="4.68995">
        <ele>451</ele>
        <time>2011-04-24T13:25:52.000Z</time>
      </trkpt>
      <trkpt lat="45.50567" lon="4.68985">
        <ele>451.39999389648</ele>
        <time>2011-04-24T13:26:06.000Z</time>
      </trkpt>
      <trkpt lat="45.5055" lon="4.6897">
        <ele>452.39999389648</ele>
        <time>2011-04-24T13:26:20.000Z</time>
      </trkpt>
      <trkpt lat="45.50549" lon="4.68969">
        <ele>453.20001220703</ele>
        <time>2011-04-24T13:26:22.000Z</time>
      </trkpt>
      <trkpt lat="45.50548" lon="4.68964">
        <ele>453.79998779297</ele>
        <time>2011-04-24T13:26:36.000Z</time>
      </trkpt>
      <trkpt lat="45.50548" lon="4.68964">
        <ele>453.79998779297</ele>
        <time>2011-04-24T13:27:01.000Z</time>
      </trkpt>
      <trkpt lat="45.50547" lon="4.68964">
        <ele>453.79998779297</ele>
        <time>2011-04-24T13:27:26.000Z</time>
      </trkpt>
      <trkpt lat="45.50547" lon="4.68964">
        <ele>454.20001220703</ele>
        <time>2011-04-24T13:27:33.000Z</time>
      </trkpt>
      <trkpt lat="45.50547" lon="4.68964">
        <ele>453.79998779297</ele>
        <time>2011-04-24T13:27:57.000Z</time>
      </trkpt>
      <trkpt lat="45.50547" lon="4.68964">
        <ele>457.20001220703</ele>
        <time>2011-04-24T13:28:17.000Z</time>
      </trkpt>
      <trkpt lat="45.50547" lon="4.68964">
        <ele>455.20001220703</ele>
        <time>2011-04-24T13:28:18.000Z</time>
      </trkpt>
      <trkpt lat="45.50548" lon="4.68963">
        <ele>454.20001220703</ele>
        <time>2011-04-24T13:28:19.000Z</time>
      </trkpt>
      <trkpt lat="45.50549" lon="4.68949">
        <ele>454.20001220703</ele>
        <time>2011-04-24T13:28:28.000Z</time>
      </trkpt>
      <trkpt lat="45.50552" lon="4.68921">
        <ele>453.79998779297</ele>
        <time>2011-04-24T13:28:44.000Z</time>
      </trkpt>
      <trkpt lat="45.5055" lon="4.6891">
        <ele>453.20001220703</ele>
        <time>2011-04-24T13:28:51.000Z</time>
      </trkpt>
      <trkpt lat="45.50552" lon="4.68908">
        <ele>453.20001220703</ele>
        <time>2011-04-24T13:28:55.000Z</time>
      </trkpt>
      <trkpt lat="45.50553" lon="4.689">
        <ele>453.79998779297</ele>
        <time>2011-04-24T13:28:58.000Z</time>
      </trkpt>
      <trkpt lat="45.50553" lon="4.68889">
        <ele>453.20001220703</ele>
        <time>2011-04-24T13:29:03.000Z</time>
      </trkpt>
      <trkpt lat="45.50552" lon="4.68876">
        <ele>453.20001220703</ele>
        <time>2011-04-24T13:29:10.000Z</time>
      </trkpt>
      <trkpt lat="45.50547" lon="4.68855">
        <ele>453.20001220703</ele>
        <time>2011-04-24T13:29:24.000Z</time>
      </trkpt>
      <trkpt lat="45.50548" lon="4.6883">
        <ele>453.20001220703</ele>
        <time>2011-04-24T13:29:38.000Z</time>
      </trkpt>
      <trkpt lat="45.50543" lon="4.68802">
        <ele>452.79998779297</ele>
        <time>2011-04-24T13:29:55.000Z</time>
      </trkpt>
      <trkpt lat="45.50535" lon="4.68775">
        <ele>451.79998779297</ele>
        <time>2011-04-24T13:30:09.000Z</time>
      </trkpt>
      <trkpt lat="45.50528" lon="4.68759">
        <ele>452.39999389648</ele>
        <time>2011-04-24T13:30:24.000Z</time>
      </trkpt>
      <trkpt lat="45.50526" lon="4.68756">
        <ele>451.79998779297</ele>
        <time>2011-04-24T13:30:28.000Z</time>
      </trkpt>
      <trkpt lat="45.50524" lon="4.68737">
        <ele>451</ele>
        <time>2011-04-24T13:30:34.000Z</time>
      </trkpt>
      <trkpt lat="45.50516" lon="4.6871">
        <ele>449.39999389648</ele>
        <time>2011-04-24T13:30:51.000Z</time>
      </trkpt>
      <trkpt lat="45.50513" lon="4.68697">
        <ele>448.39999389648</ele>
        <time>2011-04-24T13:31:04.000Z</time>
      </trkpt>
      <trkpt lat="45.50505" lon="4.68672">
        <ele>447.60000610352</ele>
        <time>2011-04-24T13:31:18.000Z</time>
      </trkpt>
      <trkpt lat="45.50504" lon="4.6867">
        <ele>447.60000610352</ele>
        <time>2011-04-24T13:31:20.000Z</time>
      </trkpt>
      <trkpt lat="45.50499" lon="4.68663">
        <ele>447</ele>
        <time>2011-04-24T13:31:24.000Z</time>
      </trkpt>
      <trkpt lat="45.50483" lon="4.68641">
        <ele>446</ele>
        <time>2011-04-24T13:31:39.000Z</time>
      </trkpt>
      <trkpt lat="45.50471" lon="4.68628">
        <ele>445.20001220703</ele>
        <time>2011-04-24T13:31:51.000Z</time>
      </trkpt>
      <trkpt lat="45.5046" lon="4.68612">
        <ele>443.60000610352</ele>
        <time>2011-04-24T13:32:05.000Z</time>
      </trkpt>
      <trkpt lat="45.50449" lon="4.68588">
        <ele>441.79998779297</ele>
        <time>2011-04-24T13:32:18.000Z</time>
      </trkpt>
      <trkpt lat="45.50449" lon="4.68587">
        <ele>440.79998779297</ele>
        <time>2011-04-24T13:32:21.000Z</time>
      </trkpt>
      <trkpt lat="45.50447" lon="4.68573">
        <ele>440.39999389648</ele>
        <time>2011-04-24T13:32:27.000Z</time>
      </trkpt>
      <trkpt lat="45.50448" lon="4.68544">
        <ele>438.79998779297</ele>
        <time>2011-04-24T13:32:40.000Z</time>
      </trkpt>
      <trkpt lat="45.5045" lon="4.68539">
        <ele>438</ele>
        <time>2011-04-24T13:32:48.000Z</time>
      </trkpt>
      <trkpt lat="45.50452" lon="4.6853">
        <ele>438.39999389648</ele>
        <time>2011-04-24T13:32:52.000Z</time>
      </trkpt>
      <trkpt lat="45.50459" lon="4.68498">
        <ele>436.39999389648</ele>
        <time>2011-04-24T13:33:06.000Z</time>
      </trkpt>
      <trkpt lat="45.5046" lon="4.68489">
        <ele>436.39999389648</ele>
        <time>2011-04-24T13:33:13.000Z</time>
      </trkpt>
      <trkpt lat="45.50463" lon="4.68461">
        <ele>435</ele>
        <time>2011-04-24T13:33:25.000Z</time>
      </trkpt>
      <trkpt lat="45.5046" lon="4.68441">
        <ele>438.79998779297</ele>
        <time>2011-04-24T13:33:37.000Z</time>
      </trkpt>
      <trkpt lat="45.5046" lon="4.68439">
        <ele>434.60000610352</ele>
        <time>2011-04-24T13:33:38.000Z</time>
      </trkpt>
      <trkpt lat="45.5046" lon="4.68438">
        <ele>421.60000610352</ele>
        <time>2011-04-24T13:33:39.000Z</time>
      </trkpt>
      <trkpt lat="45.5046" lon="4.68436">
        <ele>436</ele>
        <time>2011-04-24T13:33:40.000Z</time>
      </trkpt>
      <trkpt lat="45.5046" lon="4.68433">
        <ele>430.79998779297</ele>
        <time>2011-04-24T13:33:42.000Z</time>
      </trkpt>
      <trkpt lat="45.50459" lon="4.68427">
        <ele>434</ele>
        <time>2011-04-24T13:33:46.000Z</time>
      </trkpt>
      <trkpt lat="45.50455" lon="4.68396">
        <ele>432.60000610352</ele>
        <time>2011-04-24T13:34:03.000Z</time>
      </trkpt>
      <trkpt lat="45.50451" lon="4.68375">
        <ele>431.20001220703</ele>
        <time>2011-04-24T13:34:17.000Z</time>
      </trkpt>
      <trkpt lat="45.5045" lon="4.68369">
        <ele>430.79998779297</ele>
        <time>2011-04-24T13:34:22.000Z</time>
      </trkpt>
      <trkpt lat="45.50447" lon="4.68355">
        <ele>430.79998779297</ele>
        <time>2011-04-24T13:34:27.000Z</time>
      </trkpt>
      <trkpt lat="45.50441" lon="4.68339">
        <ele>429.79998779297</ele>
        <time>2011-04-24T13:34:40.000Z</time>
      </trkpt>
      <trkpt lat="45.50433" lon="4.68321">
        <ele>425.39999389648</ele>
        <time>2011-04-24T13:34:49.000Z</time>
      </trkpt>
      <trkpt lat="45.50432" lon="4.68319">
        <ele>429.79998779297</ele>
        <time>2011-04-24T13:34:50.000Z</time>
      </trkpt>
      <trkpt lat="45.50427" lon="4.6831">
        <ele>424</ele>
        <time>2011-04-24T13:34:56.000Z</time>
      </trkpt>
      <trkpt lat="45.50427" lon="4.68308">
        <ele>429.20001220703</ele>
        <time>2011-04-24T13:34:57.000Z</time>
      </trkpt>
      <trkpt lat="45.50414" lon="4.68283">
        <ele>426.79998779297</ele>
        <time>2011-04-24T13:35:13.000Z</time>
      </trkpt>
      <trkpt lat="45.50402" lon="4.68264">
        <ele>425</ele>
        <time>2011-04-24T13:35:28.000Z</time>
      </trkpt>
      <trkpt lat="45.50392" lon="4.68247">
        <ele>422</ele>
        <time>2011-04-24T13:35:42.000Z</time>
      </trkpt>
      <trkpt lat="45.50386" lon="4.68235">
        <ele>422</ele>
        <time>2011-04-24T13:35:54.000Z</time>
      </trkpt>
      <trkpt lat="45.50381" lon="4.68228">
        <ele>420.60000610352</ele>
        <time>2011-04-24T13:35:58.000Z</time>
      </trkpt>
      <trkpt lat="45.50367" lon="4.68196">
        <ele>420.60000610352</ele>
        <time>2011-04-24T13:36:11.000Z</time>
      </trkpt>
      <trkpt lat="45.50378" lon="4.68178">
        <ele>421</ele>
        <time>2011-04-24T13:36:26.000Z</time>
      </trkpt>
      <trkpt lat="45.50388" lon="4.68162">
        <ele>421.60000610352</ele>
        <time>2011-04-24T13:36:38.000Z</time>
      </trkpt>
      <trkpt lat="45.50391" lon="4.68155">
        <ele>422</ele>
        <time>2011-04-24T13:36:46.000Z</time>
      </trkpt>
      <trkpt lat="45.50395" lon="4.68146">
        <ele>423.60000610352</ele>
        <time>2011-04-24T13:36:51.000Z</time>
      </trkpt>
      <trkpt lat="45.50404" lon="4.68128">
        <ele>424.39999389648</ele>
        <time>2011-04-24T13:37:02.000Z</time>
      </trkpt>
      <trkpt lat="45.50406" lon="4.68118">
        <ele>424.39999389648</ele>
        <time>2011-04-24T13:37:15.000Z</time>
      </trkpt>
      <trkpt lat="45.50419" lon="4.68095">
        <ele>424.39999389648</ele>
        <time>2011-04-24T13:37:27.000Z</time>
      </trkpt>
      <trkpt lat="45.5042" lon="4.68091">
        <ele>424.39999389648</ele>
        <time>2011-04-24T13:37:32.000Z</time>
      </trkpt>
      <trkpt lat="45.50423" lon="4.68084">
        <ele>424</ele>
        <time>2011-04-24T13:37:36.000Z</time>
      </trkpt>
      <trkpt lat="45.50428" lon="4.6807">
        <ele>425</ele>
        <time>2011-04-24T13:37:49.000Z</time>
      </trkpt>
      <trkpt lat="45.50428" lon="4.6807">
        <ele>424.39999389648</ele>
        <time>2011-04-24T13:38:08.000Z</time>
      </trkpt>
      <trkpt lat="45.50426" lon="4.6807">
        <ele>424.39999389648</ele>
        <time>2011-04-24T13:38:22.000Z</time>
      </trkpt>
      <trkpt lat="45.50426" lon="4.6807">
        <ele>424</ele>
        <time>2011-04-24T13:38:43.000Z</time>
      </trkpt>
      <trkpt lat="45.50426" lon="4.68071">
        <ele>424.39999389648</ele>
        <time>2011-04-24T13:39:16.000Z</time>
      </trkpt>
      <trkpt lat="45.50426" lon="4.68072">
        <ele>424</ele>
        <time>2011-04-24T13:39:33.000Z</time>
      </trkpt>
      <trkpt lat="45.50426" lon="4.6807">
        <ele>424.39999389648</ele>
        <time>2011-04-24T13:39:49.000Z</time>
      </trkpt>
      <trkpt lat="45.50428" lon="4.68067">
        <ele>424.39999389648</ele>
        <time>2011-04-24T13:39:52.000Z</time>
      </trkpt>
      <trkpt lat="45.50436" lon="4.68038">
        <ele>424</ele>
        <time>2011-04-24T13:40:10.000Z</time>
      </trkpt>
      <trkpt lat="45.50442" lon="4.6801">
        <ele>423.60000610352</ele>
        <time>2011-04-24T13:40:25.000Z</time>
      </trkpt>
      <trkpt lat="45.50449" lon="4.67979">
        <ele>422.60000610352</ele>
        <time>2011-04-24T13:40:41.000Z</time>
      </trkpt>
      <trkpt lat="45.5045" lon="4.67967">
        <ele>421.60000610352</ele>
        <time>2011-04-24T13:40:48.000Z</time>
      </trkpt>
      <trkpt lat="45.50456" lon="4.6794">
        <ele>418.60000610352</ele>
        <time>2011-04-24T13:41:04.000Z</time>
      </trkpt>
      <trkpt lat="45.50461" lon="4.67913">
        <ele>416.20001220703</ele>
        <time>2011-04-24T13:41:19.000Z</time>
      </trkpt>
      <trkpt lat="45.50464" lon="4.67897">
        <ele>414.39999389648</ele>
        <time>2011-04-24T13:41:30.000Z</time>
      </trkpt>
      <trkpt lat="45.50468" lon="4.67877">
        <ele>410.60000610352</ele>
        <time>2011-04-24T13:41:41.000Z</time>
      </trkpt>
      <trkpt lat="45.50474" lon="4.67851">
        <ele>408.20001220703</ele>
        <time>2011-04-24T13:41:56.000Z</time>
      </trkpt>
      <trkpt lat="45.50479" lon="4.67829">
        <ele>404.79998779297</ele>
        <time>2011-04-24T13:42:11.000Z</time>
      </trkpt>
      <trkpt lat="45.50482" lon="4.67815">
        <ele>401.39999389648</ele>
        <time>2011-04-24T13:42:24.000Z</time>
      </trkpt>
      <trkpt lat="45.50482" lon="4.67815">
        <ele>401.79998779297</ele>
        <time>2011-04-24T13:42:25.000Z</time>
      </trkpt>
      <trkpt lat="45.50485" lon="4.67796">
        <ele>398.60000610352</ele>
        <time>2011-04-24T13:42:39.000Z</time>
      </trkpt>
      <trkpt lat="45.50486" lon="4.67791">
        <ele>397.60000610352</ele>
        <time>2011-04-24T13:42:46.000Z</time>
      </trkpt>
      <trkpt lat="45.50489" lon="4.67779">
        <ele>394.60000610352</ele>
        <time>2011-04-24T13:42:54.000Z</time>
      </trkpt>
      <trkpt lat="45.50491" lon="4.67769">
        <ele>393.60000610352</ele>
        <time>2011-04-24T13:42:59.000Z</time>
      </trkpt>
      <trkpt lat="45.50493" lon="4.67761">
        <ele>392.20001220703</ele>
        <time>2011-04-24T13:43:06.000Z</time>
      </trkpt>
      <trkpt lat="45.50494" lon="4.67758">
        <ele>391.20001220703</ele>
        <time>2011-04-24T13:43:08.000Z</time>
      </trkpt>
      <trkpt lat="45.50494" lon="4.67751">
        <ele>390.79998779297</ele>
        <time>2011-04-24T13:43:12.000Z</time>
      </trkpt>
      <trkpt lat="45.50496" lon="4.67738">
        <ele>388.39999389648</ele>
        <time>2011-04-24T13:43:18.000Z</time>
      </trkpt>
      <trkpt lat="45.50496" lon="4.67737">
        <ele>388</ele>
        <time>2011-04-24T13:43:21.000Z</time>
      </trkpt>
      <trkpt lat="45.50494" lon="4.6773">
        <ele>385.60000610352</ele>
        <time>2011-04-24T13:43:31.000Z</time>
      </trkpt>
      <trkpt lat="45.50488" lon="4.67727">
        <ele>383.20001220703</ele>
        <time>2011-04-24T13:43:40.000Z</time>
      </trkpt>
      <trkpt lat="45.50481" lon="4.67711">
        <ele>380.79998779297</ele>
        <time>2011-04-24T13:43:51.000Z</time>
      </trkpt>
      <trkpt lat="45.5048" lon="4.67705">
        <ele>380.79998779297</ele>
        <time>2011-04-24T13:43:54.000Z</time>
      </trkpt>
      <trkpt lat="45.50483" lon="4.677">
        <ele>379.79998779297</ele>
        <time>2011-04-24T13:43:58.000Z</time>
      </trkpt>
      <trkpt lat="45.50485" lon="4.67699">
        <ele>378.79998779297</ele>
        <time>2011-04-24T13:44:03.000Z</time>
      </trkpt>
      <trkpt lat="45.50484" lon="4.67696">
        <ele>380.20001220703</ele>
        <time>2011-04-24T13:44:06.000Z</time>
      </trkpt>
      <trkpt lat="45.50483" lon="4.67695">
        <ele>378.39999389648</ele>
        <time>2011-04-24T13:44:08.000Z</time>
      </trkpt>
      <trkpt lat="45.50479" lon="4.67695">
        <ele>379.20001220703</ele>
        <time>2011-04-24T13:44:16.000Z</time>
      </trkpt>
      <trkpt lat="45.50477" lon="4.67692">
        <ele>378.39999389648</ele>
        <time>2011-04-24T13:44:48.000Z</time>
      </trkpt>
      <trkpt lat="45.50477" lon="4.67697">
        <ele>379.20001220703</ele>
        <time>2011-04-24T13:45:09.000Z</time>
      </trkpt>
      <trkpt lat="45.50469" lon="4.67685">
        <ele>380.79998779297</ele>
        <time>2011-04-24T13:45:18.000Z</time>
      </trkpt>
      <trkpt lat="45.50466" lon="4.67679">
        <ele>380.20001220703</ele>
        <time>2011-04-24T13:45:37.000Z</time>
      </trkpt>
      <trkpt lat="45.50462" lon="4.67678">
        <ele>380.79998779297</ele>
        <time>2011-04-24T13:46:01.000Z</time>
      </trkpt>
      <trkpt lat="45.5046" lon="4.67678">
        <ele>381.20001220703</ele>
        <time>2011-04-24T13:46:18.000Z</time>
      </trkpt>
      <trkpt lat="45.50459" lon="4.67679">
        <ele>381.20001220703</ele>
        <time>2011-04-24T13:46:33.000Z</time>
      </trkpt>
      <trkpt lat="45.50459" lon="4.67678">
        <ele>384.60000610352</ele>
        <time>2011-04-24T13:46:35.000Z</time>
      </trkpt>
      <trkpt lat="45.50456" lon="4.67669">
        <ele>386</ele>
        <time>2011-04-24T13:46:40.000Z</time>
      </trkpt>
      <trkpt lat="45.50455" lon="4.67667">
        <ele>381.60000610352</ele>
        <time>2011-04-24T13:46:41.000Z</time>
      </trkpt>
      <trkpt lat="45.50454" lon="4.67662">
        <ele>385</ele>
        <time>2011-04-24T13:46:45.000Z</time>
      </trkpt>
      <trkpt lat="45.50453" lon="4.67657">
        <ele>386.39999389648</ele>
        <time>2011-04-24T13:46:49.000Z</time>
      </trkpt>
      <trkpt lat="45.50451" lon="4.67655">
        <ele>383.20001220703</ele>
        <time>2011-04-24T13:46:51.000Z</time>
      </trkpt>
      <trkpt lat="45.5045" lon="4.67654">
        <ele>386.39999389648</ele>
        <time>2011-04-24T13:46:52.000Z</time>
      </trkpt>
      <trkpt lat="45.50447" lon="4.67648">
        <ele>385.60000610352</ele>
        <time>2011-04-24T13:46:58.000Z</time>
      </trkpt>
      <trkpt lat="45.50446" lon="4.67643">
        <ele>385.60000610352</ele>
        <time>2011-04-24T13:47:02.000Z</time>
      </trkpt>
      <trkpt lat="45.50446" lon="4.67641">
        <ele>389.39999389648</ele>
        <time>2011-04-24T13:47:04.000Z</time>
      </trkpt>
      <trkpt lat="45.50445" lon="4.67641">
        <ele>386.39999389648</ele>
        <time>2011-04-24T13:47:05.000Z</time>
      </trkpt>
      <trkpt lat="45.50443" lon="4.67638">
        <ele>390.39999389648</ele>
        <time>2011-04-24T13:47:09.000Z</time>
      </trkpt>
      <trkpt lat="45.5044" lon="4.67636">
        <ele>387.39999389648</ele>
        <time>2011-04-24T13:47:13.000Z</time>
      </trkpt>
      <trkpt lat="45.50438" lon="4.67629">
        <ele>389.39999389648</ele>
        <time>2011-04-24T13:47:20.000Z</time>
      </trkpt>
      <trkpt lat="45.50439" lon="4.67621">
        <ele>392.20001220703</ele>
        <time>2011-04-24T13:47:28.000Z</time>
      </trkpt>
      <trkpt lat="45.50437" lon="4.67612">
        <ele>394.20001220703</ele>
        <time>2011-04-24T13:47:40.000Z</time>
      </trkpt>
      <trkpt lat="45.50434" lon="4.67604">
        <ele>397</ele>
        <time>2011-04-24T13:47:52.000Z</time>
      </trkpt>
      <trkpt lat="45.50434" lon="4.67604">
        <ele>397</ele>
        <time>2011-04-24T13:47:53.000Z</time>
      </trkpt>
      <trkpt lat="45.50433" lon="4.67602">
        <ele>397</ele>
        <time>2011-04-24T13:47:55.000Z</time>
      </trkpt>
      <trkpt lat="45.50431" lon="4.67599">
        <ele>396.20001220703</ele>
        <time>2011-04-24T13:47:57.000Z</time>
      </trkpt>
      <trkpt lat="45.5043" lon="4.67593">
        <ele>397</ele>
        <time>2011-04-24T13:48:03.000Z</time>
      </trkpt>
      <trkpt lat="45.50428" lon="4.67585">
        <ele>398.60000610352</ele>
        <time>2011-04-24T13:48:08.000Z</time>
      </trkpt>
      <trkpt lat="45.50427" lon="4.67577">
        <ele>401.79998779297</ele>
        <time>2011-04-24T13:48:14.000Z</time>
      </trkpt>
      <trkpt lat="45.50427" lon="4.67576">
        <ele>398</ele>
        <time>2011-04-24T13:48:15.000Z</time>
      </trkpt>
      <trkpt lat="45.50426" lon="4.67575">
        <ele>401.79998779297</ele>
        <time>2011-04-24T13:48:16.000Z</time>
      </trkpt>
      <trkpt lat="45.50427" lon="4.67572">
        <ele>398.60000610352</ele>
        <time>2011-04-24T13:48:18.000Z</time>
      </trkpt>
      <trkpt lat="45.50426" lon="4.67569">
        <ele>401.79998779297</ele>
        <time>2011-04-24T13:48:20.000Z</time>
      </trkpt>
      <trkpt lat="45.50426" lon="4.67567">
        <ele>401.79998779297</ele>
        <time>2011-04-24T13:48:21.000Z</time>
      </trkpt>
      <trkpt lat="45.50426" lon="4.67564">
        <ele>401.79998779297</ele>
        <time>2011-04-24T13:48:23.000Z</time>
      </trkpt>
      <trkpt lat="45.50425" lon="4.67559">
        <ele>403.39999389648</ele>
        <time>2011-04-24T13:48:28.000Z</time>
      </trkpt>
      <trkpt lat="45.50426" lon="4.67555">
        <ele>404.20001220703</ele>
        <time>2011-04-24T13:48:33.000Z</time>
      </trkpt>
      <trkpt lat="45.50426" lon="4.67555">
        <ele>401</ele>
        <time>2011-04-24T13:48:34.000Z</time>
      </trkpt>
      <trkpt lat="45.50426" lon="4.67555">
        <ele>403.79998779297</ele>
        <time>2011-04-24T13:48:35.000Z</time>
      </trkpt>
      <trkpt lat="45.50426" lon="4.67552">
        <ele>404.20001220703</ele>
        <time>2011-04-24T13:48:38.000Z</time>
      </trkpt>
      <trkpt lat="45.50427" lon="4.67547">
        <ele>404.20001220703</ele>
        <time>2011-04-24T13:48:42.000Z</time>
      </trkpt>
      <trkpt lat="45.50429" lon="4.67544">
        <ele>402.39999389648</ele>
        <time>2011-04-24T13:48:45.000Z</time>
      </trkpt>
      <trkpt lat="45.50429" lon="4.67543">
        <ele>405.20001220703</ele>
        <time>2011-04-24T13:48:46.000Z</time>
      </trkpt>
      <trkpt lat="45.5043" lon="4.6754">
        <ele>402.79998779297</ele>
        <time>2011-04-24T13:48:48.000Z</time>
      </trkpt>
      <trkpt lat="45.50432" lon="4.67537">
        <ele>402.79998779297</ele>
        <time>2011-04-24T13:48:51.000Z</time>
      </trkpt>
      <trkpt lat="45.50432" lon="4.67537">
        <ele>406.20001220703</ele>
        <time>2011-04-24T13:48:52.000Z</time>
      </trkpt>
      <trkpt lat="45.50433" lon="4.67534">
        <ele>404.20001220703</ele>
        <time>2011-04-24T13:48:55.000Z</time>
      </trkpt>
      <trkpt lat="45.50433" lon="4.67532">
        <ele>407.20001220703</ele>
        <time>2011-04-24T13:48:56.000Z</time>
      </trkpt>
      <trkpt lat="45.50438" lon="4.67519">
        <ele>406.20001220703</ele>
        <time>2011-04-24T13:49:04.000Z</time>
      </trkpt>
      <trkpt lat="45.50442" lon="4.67517">
        <ele>405.79998779297</ele>
        <time>2011-04-24T13:49:08.000Z</time>
      </trkpt>
      <trkpt lat="45.50452" lon="4.67515">
        <ele>412</ele>
        <time>2011-04-24T13:49:20.000Z</time>
      </trkpt>
      <trkpt lat="45.50455" lon="4.67514">
        <ele>410.60000610352</ele>
        <time>2011-04-24T13:49:22.000Z</time>
      </trkpt>
      <trkpt lat="45.50457" lon="4.67514">
        <ele>414.39999389648</ele>
        <time>2011-04-24T13:49:40.000Z</time>
      </trkpt>
      <trkpt lat="45.50457" lon="4.67513">
        <ele>414.39999389648</ele>
        <time>2011-04-24T13:49:43.000Z</time>
      </trkpt>
      <trkpt lat="45.5046" lon="4.67509">
        <ele>413.39999389648</ele>
        <time>2011-04-24T13:49:46.000Z</time>
      </trkpt>
      <trkpt lat="45.50462" lon="4.67501">
        <ele>415.39999389648</ele>
        <time>2011-04-24T13:49:51.000Z</time>
      </trkpt>
      <trkpt lat="45.50465" lon="4.67496">
        <ele>413.79998779297</ele>
        <time>2011-04-24T13:49:56.000Z</time>
      </trkpt>
      <trkpt lat="45.50466" lon="4.67494">
        <ele>417.20001220703</ele>
        <time>2011-04-24T13:49:58.000Z</time>
      </trkpt>
      <trkpt lat="45.50467" lon="4.67493">
        <ele>414.39999389648</ele>
        <time>2011-04-24T13:49:59.000Z</time>
      </trkpt>
      <trkpt lat="45.50467" lon="4.6749">
        <ele>418.20001220703</ele>
        <time>2011-04-24T13:50:01.000Z</time>
      </trkpt>
      <trkpt lat="45.50467" lon="4.67488">
        <ele>414.39999389648</ele>
        <time>2011-04-24T13:50:02.000Z</time>
      </trkpt>
      <trkpt lat="45.50468" lon="4.67487">
        <ele>417.20001220703</ele>
        <time>2011-04-24T13:50:03.000Z</time>
      </trkpt>
      <trkpt lat="45.50467" lon="4.67484">
        <ele>416.79998779297</ele>
        <time>2011-04-24T13:50:04.000Z</time>
      </trkpt>
      <trkpt lat="45.50468" lon="4.67481">
        <ele>418.60000610352</ele>
        <time>2011-04-24T13:50:07.000Z</time>
      </trkpt>
      <trkpt lat="45.50468" lon="4.67481">
        <ele>414.79998779297</ele>
        <time>2011-04-24T13:50:08.000Z</time>
      </trkpt>
      <trkpt lat="45.5047" lon="4.6748">
        <ele>419.60000610352</ele>
        <time>2011-04-24T13:50:10.000Z</time>
      </trkpt>
      <trkpt lat="45.50471" lon="4.67479">
        <ele>415.79998779297</ele>
        <time>2011-04-24T13:50:11.000Z</time>
      </trkpt>
      <trkpt lat="45.50471" lon="4.67479">
        <ele>417.20001220703</ele>
        <time>2011-04-24T13:50:12.000Z</time>
      </trkpt>
      <trkpt lat="45.50472" lon="4.67474">
        <ele>416.20001220703</ele>
        <time>2011-04-24T13:50:15.000Z</time>
      </trkpt>
      <trkpt lat="45.50474" lon="4.6747">
        <ele>416.20001220703</ele>
        <time>2011-04-24T13:50:18.000Z</time>
      </trkpt>
      <trkpt lat="45.50475" lon="4.67469">
        <ele>419.60000610352</ele>
        <time>2011-04-24T13:50:19.000Z</time>
      </trkpt>
      <trkpt lat="45.50478" lon="4.67463">
        <ele>421.60000610352</ele>
        <time>2011-04-24T13:50:24.000Z</time>
      </trkpt>
      <trkpt lat="45.50478" lon="4.67462">
        <ele>419.20001220703</ele>
        <time>2011-04-24T13:50:26.000Z</time>
      </trkpt>
      <trkpt lat="45.5048" lon="4.6746">
        <ele>420.60000610352</ele>
        <time>2011-04-24T13:50:28.000Z</time>
      </trkpt>
      <trkpt lat="45.50483" lon="4.67454">
        <ele>420.20001220703</ele>
        <time>2011-04-24T13:50:35.000Z</time>
      </trkpt>
      <trkpt lat="45.5049" lon="4.67436">
        <ele>424</ele>
        <time>2011-04-24T13:50:49.000Z</time>
      </trkpt>
      <trkpt lat="45.50491" lon="4.67428">
        <ele>424</ele>
        <time>2011-04-24T13:50:54.000Z</time>
      </trkpt>
      <trkpt lat="45.50498" lon="4.67419">
        <ele>427.79998779297</ele>
        <time>2011-04-24T13:51:04.000Z</time>
      </trkpt>
      <trkpt lat="45.50499" lon="4.67418">
        <ele>423.60000610352</ele>
        <time>2011-04-24T13:51:05.000Z</time>
      </trkpt>
      <trkpt lat="45.505" lon="4.67417">
        <ele>426.39999389648</ele>
        <time>2011-04-24T13:51:06.000Z</time>
      </trkpt>
      <trkpt lat="45.50501" lon="4.67415">
        <ele>424.39999389648</ele>
        <time>2011-04-24T13:51:08.000Z</time>
      </trkpt>
      <trkpt lat="45.50502" lon="4.67414">
        <ele>428.79998779297</ele>
        <time>2011-04-24T13:51:10.000Z</time>
      </trkpt>
      <trkpt lat="45.50507" lon="4.67413">
        <ele>425.39999389648</ele>
        <time>2011-04-24T13:51:16.000Z</time>
      </trkpt>
      <trkpt lat="45.50507" lon="4.67412">
        <ele>428.79998779297</ele>
        <time>2011-04-24T13:51:17.000Z</time>
      </trkpt>
      <trkpt lat="45.50511" lon="4.6741">
        <ele>429.79998779297</ele>
        <time>2011-04-24T13:51:25.000Z</time>
      </trkpt>
      <trkpt lat="45.50517" lon="4.67401">
        <ele>430.20001220703</ele>
        <time>2011-04-24T13:51:36.000Z</time>
      </trkpt>
      <trkpt lat="45.50522" lon="4.67391">
        <ele>434</ele>
        <time>2011-04-24T13:51:53.000Z</time>
      </trkpt>
      <trkpt lat="45.50522" lon="4.67387">
        <ele>434.60000610352</ele>
        <time>2011-04-24T13:51:57.000Z</time>
      </trkpt>
      <trkpt lat="45.50523" lon="4.67383">
        <ele>436.39999389648</ele>
        <time>2011-04-24T13:52:01.000Z</time>
      </trkpt>
      <trkpt lat="45.50525" lon="4.67381">
        <ele>434.60000610352</ele>
        <time>2011-04-24T13:52:03.000Z</time>
      </trkpt>
      <trkpt lat="45.50527" lon="4.67379">
        <ele>435.60000610352</ele>
        <time>2011-04-24T13:52:05.000Z</time>
      </trkpt>
      <trkpt lat="45.50532" lon="4.67372">
        <ele>437</ele>
        <time>2011-04-24T13:52:12.000Z</time>
      </trkpt>
      <trkpt lat="45.50538" lon="4.67363">
        <ele>436.39999389648</ele>
        <time>2011-04-24T13:52:23.000Z</time>
      </trkpt>
      <trkpt lat="45.50549" lon="4.67352">
        <ele>439.79998779297</ele>
        <time>2011-04-24T13:52:35.000Z</time>
      </trkpt>
      <trkpt lat="45.50559" lon="4.67337">
        <ele>441.20001220703</ele>
        <time>2011-04-24T13:52:50.000Z</time>
      </trkpt>
      <trkpt lat="45.50559" lon="4.67334">
        <ele>442.20001220703</ele>
        <time>2011-04-24T13:52:52.000Z</time>
      </trkpt>
      <trkpt lat="45.50565" lon="4.67321">
        <ele>444.20001220703</ele>
        <time>2011-04-24T13:53:02.000Z</time>
      </trkpt>
      <trkpt lat="45.50567" lon="4.67319">
        <ele>442.20001220703</ele>
        <time>2011-04-24T13:53:04.000Z</time>
      </trkpt>
      <trkpt lat="45.50573" lon="4.67303">
        <ele>445.60000610352</ele>
        <time>2011-04-24T13:53:18.000Z</time>
      </trkpt>
      <trkpt lat="45.50585" lon="4.6728">
        <ele>445.20001220703</ele>
        <time>2011-04-24T13:53:34.000Z</time>
      </trkpt>
      <trkpt lat="45.50597" lon="4.6726">
        <ele>446</ele>
        <time>2011-04-24T13:53:49.000Z</time>
      </trkpt>
      <trkpt lat="45.50603" lon="4.67237">
        <ele>446</ele>
        <time>2011-04-24T13:54:04.000Z</time>
      </trkpt>
      <trkpt lat="45.50606" lon="4.67224">
        <ele>446.60000610352</ele>
        <time>2011-04-24T13:54:12.000Z</time>
      </trkpt>
      <trkpt lat="45.50608" lon="4.67204">
        <ele>447</ele>
        <time>2011-04-24T13:54:23.000Z</time>
      </trkpt>
      <trkpt lat="45.5061" lon="4.67198">
        <ele>446</ele>
        <time>2011-04-24T13:54:28.000Z</time>
      </trkpt>
      <trkpt lat="45.50611" lon="4.67195">
        <ele>443.20001220703</ele>
        <time>2011-04-24T13:54:48.000Z</time>
      </trkpt>
      <trkpt lat="45.50611" lon="4.67195">
        <ele>446.60000610352</ele>
        <time>2011-04-24T13:54:49.000Z</time>
      </trkpt>
      <trkpt lat="45.50611" lon="4.67195">
        <ele>446.60000610352</ele>
        <time>2011-04-24T13:55:14.000Z</time>
      </trkpt>
      <trkpt lat="45.50612" lon="4.67194">
        <ele>446.60000610352</ele>
        <time>2011-04-24T13:55:25.000Z</time>
      </trkpt>
      <trkpt lat="45.50613" lon="4.67188">
        <ele>446</ele>
        <time>2011-04-24T13:55:29.000Z</time>
      </trkpt>
      <trkpt lat="45.50617" lon="4.67172">
        <ele>446</ele>
        <time>2011-04-24T13:55:44.000Z</time>
      </trkpt>
      <trkpt lat="45.50614" lon="4.67145">
        <ele>445.60000610352</ele>
        <time>2011-04-24T13:55:56.000Z</time>
      </trkpt>
      <trkpt lat="45.50609" lon="4.67123">
        <ele>446.60000610352</ele>
        <time>2011-04-24T13:56:08.000Z</time>
      </trkpt>
      <trkpt lat="45.50608" lon="4.6711">
        <ele>446.60000610352</ele>
        <time>2011-04-24T13:56:19.000Z</time>
      </trkpt>
      <trkpt lat="45.50607" lon="4.67107">
        <ele>446</ele>
        <time>2011-04-24T13:56:22.000Z</time>
      </trkpt>
      <trkpt lat="45.50608" lon="4.67086">
        <ele>445.60000610352</ele>
        <time>2011-04-24T13:56:34.000Z</time>
      </trkpt>
      <trkpt lat="45.50605" lon="4.67063">
        <ele>446.60000610352</ele>
        <time>2011-04-24T13:56:47.000Z</time>
      </trkpt>
      <trkpt lat="45.50602" lon="4.6704">
        <ele>445.60000610352</ele>
        <time>2011-04-24T13:57:00.000Z</time>
      </trkpt>
      <trkpt lat="45.50603" lon="4.67039">
        <ele>447</ele>
        <time>2011-04-24T13:57:02.000Z</time>
      </trkpt>
      <trkpt lat="45.50597" lon="4.67007">
        <ele>446.60000610352</ele>
        <time>2011-04-24T13:57:19.000Z</time>
      </trkpt>
      <trkpt lat="45.50594" lon="4.66982">
        <ele>447</ele>
        <time>2011-04-24T13:57:32.000Z</time>
      </trkpt>
      <trkpt lat="45.50594" lon="4.6698">
        <ele>446.60000610352</ele>
        <time>2011-04-24T13:57:34.000Z</time>
      </trkpt>
      <trkpt lat="45.50591" lon="4.66953">
        <ele>446</ele>
        <time>2011-04-24T13:57:49.000Z</time>
      </trkpt>
      <trkpt lat="45.50588" lon="4.66932">
        <ele>447</ele>
        <time>2011-04-24T13:58:01.000Z</time>
      </trkpt>
      <trkpt lat="45.50586" lon="4.66918">
        <ele>447.60000610352</ele>
        <time>2011-04-24T13:58:09.000Z</time>
      </trkpt>
      <trkpt lat="45.50579" lon="4.66892">
        <ele>447.60000610352</ele>
        <time>2011-04-24T13:58:23.000Z</time>
      </trkpt>
      <trkpt lat="45.50573" lon="4.6687">
        <ele>449</ele>
        <time>2011-04-24T13:58:36.000Z</time>
      </trkpt>
      <trkpt lat="45.50567" lon="4.66849">
        <ele>450</ele>
        <time>2011-04-24T13:58:50.000Z</time>
      </trkpt>
      <trkpt lat="45.50563" lon="4.66821">
        <ele>450.39999389648</ele>
        <time>2011-04-24T13:59:05.000Z</time>
      </trkpt>
      <trkpt lat="45.50563" lon="4.66816">
        <ele>450.39999389648</ele>
        <time>2011-04-24T13:59:09.000Z</time>
      </trkpt>
      <trkpt lat="45.50562" lon="4.66793">
        <ele>451</ele>
        <time>2011-04-24T13:59:22.000Z</time>
      </trkpt>
      <trkpt lat="45.50561" lon="4.66767">
        <ele>452.39999389648</ele>
        <time>2011-04-24T13:59:38.000Z</time>
      </trkpt>
      <trkpt lat="45.50561" lon="4.66746">
        <ele>453.79998779297</ele>
        <time>2011-04-24T13:59:53.000Z</time>
      </trkpt>
      <trkpt lat="45.50563" lon="4.66741">
        <ele>454.20001220703</ele>
        <time>2011-04-24T14:00:09.000Z</time>
      </trkpt>
      <trkpt lat="45.50565" lon="4.66722">
        <ele>454.79998779297</ele>
        <time>2011-04-24T14:00:22.000Z</time>
      </trkpt>
      <trkpt lat="45.50565" lon="4.66713">
        <ele>455.60000610352</ele>
        <time>2011-04-24T14:00:28.000Z</time>
      </trkpt>
      <trkpt lat="45.5056" lon="4.66686">
        <ele>455.20001220703</ele>
        <time>2011-04-24T14:00:46.000Z</time>
      </trkpt>
      <trkpt lat="45.50559" lon="4.66682">
        <ele>454.20001220703</ele>
        <time>2011-04-24T14:00:48.000Z</time>
      </trkpt>
      <trkpt lat="45.50557" lon="4.66666">
        <ele>453.79998779297</ele>
        <time>2011-04-24T14:00:58.000Z</time>
      </trkpt>
      <trkpt lat="45.50552" lon="4.66643">
        <ele>451.79998779297</ele>
        <time>2011-04-24T14:01:14.000Z</time>
      </trkpt>
      <trkpt lat="45.50546" lon="4.66619">
        <ele>449.39999389648</ele>
        <time>2011-04-24T14:01:29.000Z</time>
      </trkpt>
      <trkpt lat="45.50547" lon="4.66612">
        <ele>448.39999389648</ele>
        <time>2011-04-24T14:01:33.000Z</time>
      </trkpt>
      <trkpt lat="45.5055" lon="4.66599">
        <ele>448</ele>
        <time>2011-04-24T14:01:40.000Z</time>
      </trkpt>
      <trkpt lat="45.50552" lon="4.66581">
        <ele>445.60000610352</ele>
        <time>2011-04-24T14:01:49.000Z</time>
      </trkpt>
      <trkpt lat="45.50554" lon="4.66553">
        <ele>443.60000610352</ele>
        <time>2011-04-24T14:02:01.000Z</time>
      </trkpt>
      <trkpt lat="45.50559" lon="4.66521">
        <ele>442.20001220703</ele>
        <time>2011-04-24T14:02:19.000Z</time>
      </trkpt>
      <trkpt lat="45.50562" lon="4.66502">
        <ele>442.20001220703</ele>
        <time>2011-04-24T14:02:30.000Z</time>
      </trkpt>
      <trkpt lat="45.50569" lon="4.66478">
        <ele>440.39999389648</ele>
        <time>2011-04-24T14:02:45.000Z</time>
      </trkpt>
      <trkpt lat="45.50578" lon="4.66451">
        <ele>439.39999389648</ele>
        <time>2011-04-24T14:03:01.000Z</time>
      </trkpt>
      <trkpt lat="45.5059" lon="4.66422">
        <ele>441.20001220703</ele>
        <time>2011-04-24T14:03:17.000Z</time>
      </trkpt>
      <trkpt lat="45.50591" lon="4.66415">
        <ele>440.39999389648</ele>
        <time>2011-04-24T14:03:22.000Z</time>
      </trkpt>
      <trkpt lat="45.50592" lon="4.66411">
        <ele>443.20001220703</ele>
        <time>2011-04-24T14:03:25.000Z</time>
      </trkpt>
      <trkpt lat="45.50592" lon="4.66407">
        <ele>440.79998779297</ele>
        <time>2011-04-24T14:03:27.000Z</time>
      </trkpt>
      <trkpt lat="45.50593" lon="4.66404">
        <ele>443.20001220703</ele>
        <time>2011-04-24T14:03:29.000Z</time>
      </trkpt>
      <trkpt lat="45.50598" lon="4.6639">
        <ele>444.20001220703</ele>
        <time>2011-04-24T14:03:45.000Z</time>
      </trkpt>
      <trkpt lat="45.50595" lon="4.66389">
        <ele>445.20001220703</ele>
        <time>2011-04-24T14:03:52.000Z</time>
      </trkpt>
      <trkpt lat="45.50584" lon="4.66389">
        <ele>448</ele>
        <time>2011-04-24T14:04:03.000Z</time>
      </trkpt>
      <trkpt lat="45.50577" lon="4.66384">
        <ele>447.60000610352</ele>
        <time>2011-04-24T14:04:09.000Z</time>
      </trkpt>
      <trkpt lat="45.50563" lon="4.66374">
        <ele>451</ele>
        <time>2011-04-24T14:04:24.000Z</time>
      </trkpt>
      <trkpt lat="45.50548" lon="4.66366">
        <ele>451.39999389648</ele>
        <time>2011-04-24T14:04:39.000Z</time>
      </trkpt>
      <trkpt lat="45.50529" lon="4.66352">
        <ele>454.20001220703</ele>
        <time>2011-04-24T14:04:58.000Z</time>
      </trkpt>
      <trkpt lat="45.50524" lon="4.66348">
        <ele>454.79998779297</ele>
        <time>2011-04-24T14:05:03.000Z</time>
      </trkpt>
      <trkpt lat="45.50512" lon="4.66339">
        <ele>455.60000610352</ele>
        <time>2011-04-24T14:05:15.000Z</time>
      </trkpt>
      <trkpt lat="45.50503" lon="4.66334">
        <ele>458.20001220703</ele>
        <time>2011-04-24T14:05:23.000Z</time>
      </trkpt>
      <trkpt lat="45.50503" lon="4.66334">
        <ele>456.60000610352</ele>
        <time>2011-04-24T14:05:24.000Z</time>
      </trkpt>
      <trkpt lat="45.505" lon="4.66332">
        <ele>458.60000610352</ele>
        <time>2011-04-24T14:05:27.000Z</time>
      </trkpt>
      <trkpt lat="45.50487" lon="4.66321">
        <ele>458.60000610352</ele>
        <time>2011-04-24T14:05:38.000Z</time>
      </trkpt>
      <trkpt lat="45.50484" lon="4.66319">
        <ele>460.60000610352</ele>
        <time>2011-04-24T14:05:41.000Z</time>
      </trkpt>
      <trkpt lat="45.50468" lon="4.66309">
        <ele>460.60000610352</ele>
        <time>2011-04-24T14:05:56.000Z</time>
      </trkpt>
      <trkpt lat="45.50465" lon="4.66307">
        <ele>463.79998779297</ele>
        <time>2011-04-24T14:05:59.000Z</time>
      </trkpt>
      <trkpt lat="45.50449" lon="4.66303">
        <ele>464.39999389648</ele>
        <time>2011-04-24T14:06:14.000Z</time>
      </trkpt>
      <trkpt lat="45.50437" lon="4.66317">
        <ele>465.39999389648</ele>
        <time>2011-04-24T14:06:29.000Z</time>
      </trkpt>
      <trkpt lat="45.50433" lon="4.66322">
        <ele>465.79998779297</ele>
        <time>2011-04-24T14:06:34.000Z</time>
      </trkpt>
      <trkpt lat="45.50416" lon="4.66344">
        <ele>466.20001220703</ele>
        <time>2011-04-24T14:06:50.000Z</time>
      </trkpt>
      <trkpt lat="45.50403" lon="4.66351">
        <ele>468.60000610352</ele>
        <time>2011-04-24T14:07:05.000Z</time>
      </trkpt>
      <trkpt lat="45.50401" lon="4.66352">
        <ele>468.20001220703</ele>
        <time>2011-04-24T14:07:23.000Z</time>
      </trkpt>
      <trkpt lat="45.50401" lon="4.66352">
        <ele>468.20001220703</ele>
        <time>2011-04-24T14:07:43.000Z</time>
      </trkpt>
      <trkpt lat="45.50391" lon="4.6636">
        <ele>469.20001220703</ele>
        <time>2011-04-24T14:07:59.000Z</time>
      </trkpt>
      <trkpt lat="45.50385" lon="4.6636">
        <ele>469.20001220703</ele>
        <time>2011-04-24T14:08:18.000Z</time>
      </trkpt>
      <trkpt lat="45.50385" lon="4.6636">
        <ele>470.20001220703</ele>
        <time>2011-04-24T14:08:23.000Z</time>
      </trkpt>
      <trkpt lat="45.5038" lon="4.66364">
        <ele>470.20001220703</ele>
        <time>2011-04-24T14:08:30.000Z</time>
      </trkpt>
      <trkpt lat="45.50376" lon="4.66368">
        <ele>470.20001220703</ele>
        <time>2011-04-24T14:08:34.000Z</time>
      </trkpt>
      <trkpt lat="45.50372" lon="4.66372">
        <ele>471</ele>
        <time>2011-04-24T14:08:38.000Z</time>
      </trkpt>
      <trkpt lat="45.50358" lon="4.66384">
        <ele>472.60000610352</ele>
        <time>2011-04-24T14:08:53.000Z</time>
      </trkpt>
      <trkpt lat="45.50354" lon="4.66387">
        <ele>472.60000610352</ele>
        <time>2011-04-24T14:08:58.000Z</time>
      </trkpt>
      <trkpt lat="45.50338" lon="4.66401">
        <ele>474.39999389648</ele>
        <time>2011-04-24T14:09:14.000Z</time>
      </trkpt>
      <trkpt lat="45.50328" lon="4.66418">
        <ele>475</ele>
        <time>2011-04-24T14:09:29.000Z</time>
      </trkpt>
      <trkpt lat="45.50323" lon="4.66432">
        <ele>476.39999389648</ele>
        <time>2011-04-24T14:09:39.000Z</time>
      </trkpt>
      <trkpt lat="45.50309" lon="4.66459">
        <ele>477.79998779297</ele>
        <time>2011-04-24T14:09:57.000Z</time>
      </trkpt>
      <trkpt lat="45.50289" lon="4.66475">
        <ele>478.20001220703</ele>
        <time>2011-04-24T14:10:13.000Z</time>
      </trkpt>
      <trkpt lat="45.50287" lon="4.66477">
        <ele>479.79998779297</ele>
        <time>2011-04-24T14:10:15.000Z</time>
      </trkpt>
      <trkpt lat="45.5028" lon="4.66483">
        <ele>480.20001220703</ele>
        <time>2011-04-24T14:10:22.000Z</time>
      </trkpt>
      <trkpt lat="45.50259" lon="4.66498">
        <ele>481.60000610352</ele>
        <time>2011-04-24T14:10:41.000Z</time>
      </trkpt>
      <trkpt lat="45.50256" lon="4.66506">
        <ele>481.60000610352</ele>
        <time>2011-04-24T14:10:57.000Z</time>
      </trkpt>
      <trkpt lat="45.50256" lon="4.66506">
        <ele>485</ele>
        <time>2011-04-24T14:11:05.000Z</time>
      </trkpt>
      <trkpt lat="45.50256" lon="4.66506">
        <ele>479.79998779297</ele>
        <time>2011-04-24T14:11:06.000Z</time>
      </trkpt>
      <trkpt lat="45.50256" lon="4.66506">
        <ele>487</ele>
        <time>2011-04-24T14:11:08.000Z</time>
      </trkpt>
      <trkpt lat="45.50256" lon="4.66506">
        <ele>481.60000610352</ele>
        <time>2011-04-24T14:11:09.000Z</time>
      </trkpt>
      <trkpt lat="45.50256" lon="4.66506">
        <ele>488</ele>
        <time>2011-04-24T14:11:11.000Z</time>
      </trkpt>
      <trkpt lat="45.50256" lon="4.66506">
        <ele>481.60000610352</ele>
        <time>2011-04-24T14:11:12.000Z</time>
      </trkpt>
      <trkpt lat="45.50256" lon="4.66506">
        <ele>485</ele>
        <time>2011-04-24T14:11:13.000Z</time>
      </trkpt>
      <trkpt lat="45.50256" lon="4.66506">
        <ele>480.60000610352</ele>
        <time>2011-04-24T14:11:14.000Z</time>
      </trkpt>
      <trkpt lat="45.50255" lon="4.66506">
        <ele>480.60000610352</ele>
        <time>2011-04-24T14:11:48.000Z</time>
      </trkpt>
      <trkpt lat="45.50255" lon="4.66506">
        <ele>480.60000610352</ele>
        <time>2011-04-24T14:12:21.000Z</time>
      </trkpt>
      <trkpt lat="45.50255" lon="4.66506">
        <ele>480.60000610352</ele>
        <time>2011-04-24T14:12:52.000Z</time>
      </trkpt>
      <trkpt lat="45.50255" lon="4.66508">
        <ele>480.60000610352</ele>
        <time>2011-04-24T14:13:27.000Z</time>
      </trkpt>
      <trkpt lat="45.50254" lon="4.66508">
        <ele>480.60000610352</ele>
        <time>2011-04-24T14:14:03.000Z</time>
      </trkpt>
      <trkpt lat="45.50254" lon="4.66508">
        <ele>481.20001220703</ele>
        <time>2011-04-24T14:14:42.000Z</time>
      </trkpt>
      <trkpt lat="45.50254" lon="4.66508">
        <ele>482.20001220703</ele>
        <time>2011-04-24T14:14:52.000Z</time>
      </trkpt>
      <trkpt lat="45.50247" lon="4.66509">
        <ele>481.60000610352</ele>
        <time>2011-04-24T14:14:57.000Z</time>
      </trkpt>
      <trkpt lat="45.50241" lon="4.66511">
        <ele>481.20001220703</ele>
        <time>2011-04-24T14:15:10.000Z</time>
      </trkpt>
      <trkpt lat="45.50237" lon="4.6651">
        <ele>481.20001220703</ele>
        <time>2011-04-24T14:15:16.000Z</time>
      </trkpt>
      <trkpt lat="45.50219" lon="4.66512">
        <ele>479.79998779297</ele>
        <time>2011-04-24T14:15:29.000Z</time>
      </trkpt>
      <trkpt lat="45.50205" lon="4.66513">
        <ele>478.20001220703</ele>
        <time>2011-04-24T14:15:42.000Z</time>
      </trkpt>
      <trkpt lat="45.50187" lon="4.66516">
        <ele>476.39999389648</ele>
        <time>2011-04-24T14:15:55.000Z</time>
      </trkpt>
      <trkpt lat="45.50171" lon="4.66519">
        <ele>475.39999389648</ele>
        <time>2011-04-24T14:16:07.000Z</time>
      </trkpt>
      <trkpt lat="45.50155" lon="4.66522">
        <ele>475.39999389648</ele>
        <time>2011-04-24T14:16:19.000Z</time>
      </trkpt>
      <trkpt lat="45.50154" lon="4.66523">
        <ele>475.39999389648</ele>
        <time>2011-04-24T14:16:20.000Z</time>
      </trkpt>
      <trkpt lat="45.50146" lon="4.66524">
        <ele>475.39999389648</ele>
        <time>2011-04-24T14:16:34.000Z</time>
      </trkpt>
      <trkpt lat="45.50134" lon="4.66529">
        <ele>476.39999389648</ele>
        <time>2011-04-24T14:16:46.000Z</time>
      </trkpt>
      <trkpt lat="45.50132" lon="4.66529">
        <ele>476.79998779297</ele>
        <time>2011-04-24T14:16:50.000Z</time>
      </trkpt>
      <trkpt lat="45.50116" lon="4.66535">
        <ele>476.79998779297</ele>
        <time>2011-04-24T14:17:02.000Z</time>
      </trkpt>
      <trkpt lat="45.50098" lon="4.66544">
        <ele>477.39999389648</ele>
        <time>2011-04-24T14:17:14.000Z</time>
      </trkpt>
      <trkpt lat="45.5009" lon="4.66552">
        <ele>478.20001220703</ele>
        <time>2011-04-24T14:17:28.000Z</time>
      </trkpt>
      <trkpt lat="45.50089" lon="4.66553">
        <ele>478.79998779297</ele>
        <time>2011-04-24T14:17:33.000Z</time>
      </trkpt>
      <trkpt lat="45.5008" lon="4.66563">
        <ele>479.20001220703</ele>
        <time>2011-04-24T14:17:42.000Z</time>
      </trkpt>
      <trkpt lat="45.50066" lon="4.66578">
        <ele>479.20001220703</ele>
        <time>2011-04-24T14:17:51.000Z</time>
      </trkpt>
      <trkpt lat="45.5005" lon="4.66598">
        <ele>480.60000610352</ele>
        <time>2011-04-24T14:18:03.000Z</time>
      </trkpt>
      <trkpt lat="45.5004" lon="4.66611">
        <ele>482.20001220703</ele>
        <time>2011-04-24T14:18:15.000Z</time>
      </trkpt>
      <trkpt lat="45.50039" lon="4.66614">
        <ele>482.20001220703</ele>
        <time>2011-04-24T14:18:18.000Z</time>
      </trkpt>
      <trkpt lat="45.50033" lon="4.66627">
        <ele>483.20001220703</ele>
        <time>2011-04-24T14:18:26.000Z</time>
      </trkpt>
      <trkpt lat="45.50021" lon="4.66645">
        <ele>484</ele>
        <time>2011-04-24T14:18:38.000Z</time>
      </trkpt>
      <trkpt lat="45.50013" lon="4.66656">
        <ele>485.60000610352</ele>
        <time>2011-04-24T14:18:48.000Z</time>
      </trkpt>
      <trkpt lat="45.50001" lon="4.6667">
        <ele>486.39999389648</ele>
        <time>2011-04-24T14:19:01.000Z</time>
      </trkpt>
      <trkpt lat="45.49989" lon="4.66683">
        <ele>488</ele>
        <time>2011-04-24T14:19:13.000Z</time>
      </trkpt>
      <trkpt lat="45.49979" lon="4.66696">
        <ele>488.79998779297</ele>
        <time>2011-04-24T14:19:23.000Z</time>
      </trkpt>
      <trkpt lat="45.49966" lon="4.66709">
        <ele>490.39999389648</ele>
        <time>2011-04-24T14:19:35.000Z</time>
      </trkpt>
      <trkpt lat="45.49951" lon="4.66718">
        <ele>491.79998779297</ele>
        <time>2011-04-24T14:19:49.000Z</time>
      </trkpt>
      <trkpt lat="45.49936" lon="4.66725">
        <ele>493.20001220703</ele>
        <time>2011-04-24T14:20:02.000Z</time>
      </trkpt>
      <trkpt lat="45.49928" lon="4.66731">
        <ele>494.20001220703</ele>
        <time>2011-04-24T14:20:11.000Z</time>
      </trkpt>
      <trkpt lat="45.49911" lon="4.66736">
        <ele>496</ele>
        <time>2011-04-24T14:20:24.000Z</time>
      </trkpt>
      <trkpt lat="45.49899" lon="4.66743">
        <ele>496.60000610352</ele>
        <time>2011-04-24T14:20:36.000Z</time>
      </trkpt>
      <trkpt lat="45.49879" lon="4.66748">
        <ele>496.60000610352</ele>
        <time>2011-04-24T14:20:49.000Z</time>
      </trkpt>
      <trkpt lat="45.49866" lon="4.66748">
        <ele>496</ele>
        <time>2011-04-24T14:21:03.000Z</time>
      </trkpt>
      <trkpt lat="45.49854" lon="4.66748">
        <ele>496</ele>
        <time>2011-04-24T14:21:18.000Z</time>
      </trkpt>
      <trkpt lat="45.49829" lon="4.66742">
        <ele>494.20001220703</ele>
        <time>2011-04-24T14:21:31.000Z</time>
      </trkpt>
      <trkpt lat="45.49826" lon="4.66739">
        <ele>493.60000610352</ele>
        <time>2011-04-24T14:21:35.000Z</time>
      </trkpt>
      <trkpt lat="45.49804" lon="4.66726">
        <ele>493.20001220703</ele>
        <time>2011-04-24T14:21:49.000Z</time>
      </trkpt>
      <trkpt lat="45.49784" lon="4.66715">
        <ele>492.79998779297</ele>
        <time>2011-04-24T14:22:03.000Z</time>
      </trkpt>
      <trkpt lat="45.49781" lon="4.66712">
        <ele>492.20001220703</ele>
        <time>2011-04-24T14:22:10.000Z</time>
      </trkpt>
      <trkpt lat="45.4976" lon="4.66702">
        <ele>492.79998779297</ele>
        <time>2011-04-24T14:22:24.000Z</time>
      </trkpt>
      <trkpt lat="45.49758" lon="4.667">
        <ele>492.79998779297</ele>
        <time>2011-04-24T14:22:27.000Z</time>
      </trkpt>
      <trkpt lat="45.49755" lon="4.66697">
        <ele>492.20001220703</ele>
        <time>2011-04-24T14:22:29.000Z</time>
      </trkpt>
      <trkpt lat="45.49741" lon="4.66681">
        <ele>493.20001220703</ele>
        <time>2011-04-24T14:22:38.000Z</time>
      </trkpt>
      <trkpt lat="45.49722" lon="4.66674">
        <ele>494.20001220703</ele>
        <time>2011-04-24T14:22:54.000Z</time>
      </trkpt>
      <trkpt lat="45.49705" lon="4.66662">
        <ele>494.20001220703</ele>
        <time>2011-04-24T14:23:08.000Z</time>
      </trkpt>
      <trkpt lat="45.49692" lon="4.66648">
        <ele>494.20001220703</ele>
        <time>2011-04-24T14:23:22.000Z</time>
      </trkpt>
      <trkpt lat="45.49679" lon="4.66632">
        <ele>494.60000610352</ele>
        <time>2011-04-24T14:23:38.000Z</time>
      </trkpt>
      <trkpt lat="45.49667" lon="4.66622">
        <ele>494.60000610352</ele>
        <time>2011-04-24T14:23:47.000Z</time>
      </trkpt>
      <trkpt lat="45.49652" lon="4.666">
        <ele>493.60000610352</ele>
        <time>2011-04-24T14:24:00.000Z</time>
      </trkpt>
      <trkpt lat="45.49651" lon="4.66594">
        <ele>499.39999389648</ele>
        <time>2011-04-24T14:24:04.000Z</time>
      </trkpt>
      <trkpt lat="45.4965" lon="4.66593">
        <ele>489.79998779297</ele>
        <time>2011-04-24T14:24:05.000Z</time>
      </trkpt>
      <trkpt lat="45.49649" lon="4.66591">
        <ele>493.60000610352</ele>
        <time>2011-04-24T14:24:06.000Z</time>
      </trkpt>
      <trkpt lat="45.49649" lon="4.66589">
        <ele>493.60000610352</ele>
        <time>2011-04-24T14:24:07.000Z</time>
      </trkpt>
      <trkpt lat="45.49647" lon="4.6658">
        <ele>491.79998779297</ele>
        <time>2011-04-24T14:24:19.000Z</time>
      </trkpt>
      <trkpt lat="45.49647" lon="4.66575">
        <ele>492.20001220703</ele>
        <time>2011-04-24T14:24:21.000Z</time>
      </trkpt>
      <trkpt lat="45.49636" lon="4.66543">
        <ele>491.20001220703</ele>
        <time>2011-04-24T14:24:31.000Z</time>
      </trkpt>
      <trkpt lat="45.49636" lon="4.66529">
        <ele>490.79998779297</ele>
        <time>2011-04-24T14:24:42.000Z</time>
      </trkpt>
      <trkpt lat="45.49633" lon="4.66519">
        <ele>490.39999389648</ele>
        <time>2011-04-24T14:24:46.000Z</time>
      </trkpt>
      <trkpt lat="45.49628" lon="4.66509">
        <ele>490.39999389648</ele>
        <time>2011-04-24T14:24:52.000Z</time>
      </trkpt>
      <trkpt lat="45.49622" lon="4.66503">
        <ele>490.39999389648</ele>
        <time>2011-04-24T14:24:58.000Z</time>
      </trkpt>
      <trkpt lat="45.496" lon="4.66499">
        <ele>491.20001220703</ele>
        <time>2011-04-24T14:25:14.000Z</time>
      </trkpt>
      <trkpt lat="45.49585" lon="4.66502">
        <ele>493.60000610352</ele>
        <time>2011-04-24T14:25:27.000Z</time>
      </trkpt>
      <trkpt lat="45.49566" lon="4.665">
        <ele>496</ele>
        <time>2011-04-24T14:25:42.000Z</time>
      </trkpt>
      <trkpt lat="45.49562" lon="4.665">
        <ele>496</ele>
        <time>2011-04-24T14:25:47.000Z</time>
      </trkpt>
      <trkpt lat="45.49549" lon="4.66496">
        <ele>497</ele>
        <time>2011-04-24T14:25:59.000Z</time>
      </trkpt>
      <trkpt lat="45.49525" lon="4.66495">
        <ele>498.39999389648</ele>
        <time>2011-04-24T14:26:17.000Z</time>
      </trkpt>
      <trkpt lat="45.49507" lon="4.66492">
        <ele>499.39999389648</ele>
        <time>2011-04-24T14:26:31.000Z</time>
      </trkpt>
      <trkpt lat="45.4949" lon="4.66488">
        <ele>500.39999389648</ele>
        <time>2011-04-24T14:26:45.000Z</time>
      </trkpt>
      <trkpt lat="45.49488" lon="4.66489">
        <ele>500.79998779297</ele>
        <time>2011-04-24T14:26:48.000Z</time>
      </trkpt>
      <trkpt lat="45.49467" lon="4.66486">
        <ele>501.79998779297</ele>
        <time>2011-04-24T14:27:04.000Z</time>
      </trkpt>
      <trkpt lat="45.49446" lon="4.66486">
        <ele>503.20001220703</ele>
        <time>2011-04-24T14:27:20.000Z</time>
      </trkpt>
      <trkpt lat="45.49446" lon="4.66485">
        <ele>504.79998779297</ele>
        <time>2011-04-24T14:27:34.000Z</time>
      </trkpt>
      <trkpt lat="45.49414" lon="4.66481">
        <ele>506.60000610352</ele>
        <time>2011-04-24T14:27:53.000Z</time>
      </trkpt>
      <trkpt lat="45.49406" lon="4.66481">
        <ele>507.60000610352</ele>
        <time>2011-04-24T14:27:59.000Z</time>
      </trkpt>
      <trkpt lat="45.49386" lon="4.66469">
        <ele>510</ele>
        <time>2011-04-24T14:28:15.000Z</time>
      </trkpt>
      <trkpt lat="45.49366" lon="4.6646">
        <ele>512.40002441406</ele>
        <time>2011-04-24T14:28:31.000Z</time>
      </trkpt>
      <trkpt lat="45.49365" lon="4.66459">
        <ele>513</ele>
        <time>2011-04-24T14:28:32.000Z</time>
      </trkpt>
      <trkpt lat="45.49348" lon="4.6645">
        <ele>514.79998779297</ele>
        <time>2011-04-24T14:28:49.000Z</time>
      </trkpt>
      <trkpt lat="45.49338" lon="4.66441">
        <ele>516.79998779297</ele>
        <time>2011-04-24T14:29:02.000Z</time>
      </trkpt>
      <trkpt lat="45.4933" lon="4.66437">
        <ele>518.20001220703</ele>
        <time>2011-04-24T14:29:10.000Z</time>
      </trkpt>
      <trkpt lat="45.49314" lon="4.66419">
        <ele>521.59997558594</ele>
        <time>2011-04-24T14:29:27.000Z</time>
      </trkpt>
      <trkpt lat="45.49305" lon="4.66407">
        <ele>522.59997558594</ele>
        <time>2011-04-24T14:29:37.000Z</time>
      </trkpt>
      <trkpt lat="45.49303" lon="4.66405">
        <ele>523</ele>
        <time>2011-04-24T14:29:39.000Z</time>
      </trkpt>
      <trkpt lat="45.49296" lon="4.66404">
        <ele>524</ele>
        <time>2011-04-24T14:29:52.000Z</time>
      </trkpt>
      <trkpt lat="45.49296" lon="4.66404">
        <ele>520.20001220703</ele>
        <time>2011-04-24T14:29:58.000Z</time>
      </trkpt>
      <trkpt lat="45.49296" lon="4.66404">
        <ele>525</ele>
        <time>2011-04-24T14:29:59.000Z</time>
      </trkpt>
      <trkpt lat="45.49296" lon="4.66404">
        <ele>524</ele>
        <time>2011-04-24T14:30:03.000Z</time>
      </trkpt>
      <trkpt lat="45.49296" lon="4.66404">
        <ele>524.40002441406</ele>
        <time>2011-04-24T14:30:21.000Z</time>
      </trkpt>
      <trkpt lat="45.49296" lon="4.66404">
        <ele>524.40002441406</ele>
        <time>2011-04-24T14:30:37.000Z</time>
      </trkpt>
      <trkpt lat="45.49296" lon="4.66404">
        <ele>524.40002441406</ele>
        <time>2011-04-24T14:30:55.000Z</time>
      </trkpt>
      <trkpt lat="45.49295" lon="4.66402">
        <ele>524</ele>
        <time>2011-04-24T14:31:08.000Z</time>
      </trkpt>
      <trkpt lat="45.49295" lon="4.66402">
        <ele>525</ele>
        <time>2011-04-24T14:31:31.000Z</time>
      </trkpt>
      <trkpt lat="45.49295" lon="4.66402">
        <ele>525</ele>
        <time>2011-04-24T14:31:47.000Z</time>
      </trkpt>
      <trkpt lat="45.49294" lon="4.66399">
        <ele>524.40002441406</ele>
        <time>2011-04-24T14:32:04.000Z</time>
      </trkpt>
      <trkpt lat="45.49293" lon="4.664">
        <ele>524.40002441406</ele>
        <time>2011-04-24T14:32:16.000Z</time>
      </trkpt>
      <trkpt lat="45.49288" lon="4.66403">
        <ele>524.40002441406</ele>
        <time>2011-04-24T14:32:28.000Z</time>
      </trkpt>
      <trkpt lat="45.49272" lon="4.6641">
        <ele>524</ele>
        <time>2011-04-24T14:32:42.000Z</time>
      </trkpt>
      <trkpt lat="45.49262" lon="4.6642">
        <ele>524.40002441406</ele>
        <time>2011-04-24T14:32:54.000Z</time>
      </trkpt>
      <trkpt lat="45.49259" lon="4.66426">
        <ele>524</ele>
        <time>2011-04-24T14:33:05.000Z</time>
      </trkpt>
      <trkpt lat="45.49259" lon="4.66427">
        <ele>524</ele>
        <time>2011-04-24T14:33:06.000Z</time>
      </trkpt>
      <trkpt lat="45.49258" lon="4.66437">
        <ele>524</ele>
        <time>2011-04-24T14:33:11.000Z</time>
      </trkpt>
      <trkpt lat="45.49255" lon="4.66446">
        <ele>524</ele>
        <time>2011-04-24T14:33:17.000Z</time>
      </trkpt>
      <trkpt lat="45.49254" lon="4.66449">
        <ele>524</ele>
        <time>2011-04-24T14:33:19.000Z</time>
      </trkpt>
      <trkpt lat="45.49254" lon="4.66452">
        <ele>524</ele>
        <time>2011-04-24T14:33:32.000Z</time>
      </trkpt>
      <trkpt lat="45.49254" lon="4.66454">
        <ele>524</ele>
        <time>2011-04-24T14:33:37.000Z</time>
      </trkpt>
      <trkpt lat="45.49252" lon="4.66481">
        <ele>525</ele>
        <time>2011-04-24T14:33:51.000Z</time>
      </trkpt>
      <trkpt lat="45.49253" lon="4.66506">
        <ele>525.40002441406</ele>
        <time>2011-04-24T14:34:04.000Z</time>
      </trkpt>
      <trkpt lat="45.49253" lon="4.66505">
        <ele>525.40002441406</ele>
        <time>2011-04-24T14:34:07.000Z</time>
      </trkpt>
      <trkpt lat="45.49246" lon="4.66525">
        <ele>525.79998779297</ele>
        <time>2011-04-24T14:34:20.000Z</time>
      </trkpt>
      <trkpt lat="45.49244" lon="4.66552">
        <ele>526.79998779297</ele>
        <time>2011-04-24T14:34:35.000Z</time>
      </trkpt>
      <trkpt lat="45.49241" lon="4.66572">
        <ele>527.79998779297</ele>
        <time>2011-04-24T14:34:47.000Z</time>
      </trkpt>
      <trkpt lat="45.49241" lon="4.6659">
        <ele>524.40002441406</ele>
        <time>2011-04-24T14:34:58.000Z</time>
      </trkpt>
      <trkpt lat="45.49241" lon="4.66591">
        <ele>530.20001220703</ele>
        <time>2011-04-24T14:34:59.000Z</time>
      </trkpt>
      <trkpt lat="45.4924" lon="4.66601">
        <ele>534</ele>
        <time>2011-04-24T14:35:05.000Z</time>
      </trkpt>
      <trkpt lat="45.4924" lon="4.66602">
        <ele>530.59997558594</ele>
        <time>2011-04-24T14:35:06.000Z</time>
      </trkpt>
      <trkpt lat="45.4924" lon="4.6661">
        <ele>531.20001220703</ele>
        <time>2011-04-24T14:35:16.000Z</time>
      </trkpt>
      <trkpt lat="45.4924" lon="4.66615">
        <ele>527.40002441406</ele>
        <time>2011-04-24T14:35:19.000Z</time>
      </trkpt>
      <trkpt lat="45.4924" lon="4.66616">
        <ele>531.59997558594</ele>
        <time>2011-04-24T14:35:20.000Z</time>
      </trkpt>
      <trkpt lat="45.4924" lon="4.66622">
        <ele>533.59997558594</ele>
        <time>2011-04-24T14:35:23.000Z</time>
      </trkpt>
      <trkpt lat="45.49239" lon="4.66652">
        <ele>534.59997558594</ele>
        <time>2011-04-24T14:35:41.000Z</time>
      </trkpt>
      <trkpt lat="45.49239" lon="4.66662">
        <ele>535.40002441406</ele>
        <time>2011-04-24T14:35:48.000Z</time>
      </trkpt>
      <trkpt lat="45.49237" lon="4.66673">
        <ele>536.40002441406</ele>
        <time>2011-04-24T14:35:53.000Z</time>
      </trkpt>
      <trkpt lat="45.49237" lon="4.66693">
        <ele>537.40002441406</ele>
        <time>2011-04-24T14:36:04.000Z</time>
      </trkpt>
      <trkpt lat="45.49237" lon="4.66699">
        <ele>537.79998779297</ele>
        <time>2011-04-24T14:36:08.000Z</time>
      </trkpt>
      <trkpt lat="45.49235" lon="4.66719">
        <ele>539.79998779297</ele>
        <time>2011-04-24T14:36:21.000Z</time>
      </trkpt>
      <trkpt lat="45.49235" lon="4.66724">
        <ele>540.40002441406</ele>
        <time>2011-04-24T14:36:25.000Z</time>
      </trkpt>
      <trkpt lat="45.49235" lon="4.66731">
        <ele>541.20001220703</ele>
        <time>2011-04-24T14:36:31.000Z</time>
      </trkpt>
      <trkpt lat="45.49238" lon="4.66743">
        <ele>542.59997558594</ele>
        <time>2011-04-24T14:36:43.000Z</time>
      </trkpt>
      <trkpt lat="45.49238" lon="4.66743">
        <ele>542.59997558594</ele>
        <time>2011-04-24T14:36:51.000Z</time>
      </trkpt>
      <trkpt lat="45.49238" lon="4.6676">
        <ele>544.20001220703</ele>
        <time>2011-04-24T14:37:06.000Z</time>
      </trkpt>
      <trkpt lat="45.49238" lon="4.6676">
        <ele>544.20001220703</ele>
        <time>2011-04-24T14:37:07.000Z</time>
      </trkpt>
      <trkpt lat="45.49236" lon="4.66766">
        <ele>545.20001220703</ele>
        <time>2011-04-24T14:37:12.000Z</time>
      </trkpt>
      <trkpt lat="45.49235" lon="4.66794">
        <ele>548</ele>
        <time>2011-04-24T14:37:25.000Z</time>
      </trkpt>
      <trkpt lat="45.49235" lon="4.66795">
        <ele>548</ele>
        <time>2011-04-24T14:37:26.000Z</time>
      </trkpt>
      <trkpt lat="45.49235" lon="4.668">
        <ele>549.40002441406</ele>
        <time>2011-04-24T14:37:31.000Z</time>
      </trkpt>
      <trkpt lat="45.49234" lon="4.66809">
        <ele>549.40002441406</ele>
        <time>2011-04-24T14:37:37.000Z</time>
      </trkpt>
      <trkpt lat="45.49232" lon="4.66826">
        <ele>551.79998779297</ele>
        <time>2011-04-24T14:37:48.000Z</time>
      </trkpt>
      <trkpt lat="45.49231" lon="4.66831">
        <ele>552.40002441406</ele>
        <time>2011-04-24T14:37:51.000Z</time>
      </trkpt>
      <trkpt lat="45.49231" lon="4.66844">
        <ele>552.79998779297</ele>
        <time>2011-04-24T14:37:59.000Z</time>
      </trkpt>
      <trkpt lat="45.4923" lon="4.66857">
        <ele>554.79998779297</ele>
        <time>2011-04-24T14:38:09.000Z</time>
      </trkpt>
      <trkpt lat="45.49228" lon="4.66875">
        <ele>556.20001220703</ele>
        <time>2011-04-24T14:38:20.000Z</time>
      </trkpt>
      <trkpt lat="45.49226" lon="4.66888">
        <ele>557.59997558594</ele>
        <time>2011-04-24T14:38:30.000Z</time>
      </trkpt>
      <trkpt lat="45.49223" lon="4.66895">
        <ele>558.59997558594</ele>
        <time>2011-04-24T14:38:36.000Z</time>
      </trkpt>
      <trkpt lat="45.4922" lon="4.66906">
        <ele>559.59997558594</ele>
        <time>2011-04-24T14:38:42.000Z</time>
      </trkpt>
      <trkpt lat="45.49216" lon="4.66923">
        <ele>561</ele>
        <time>2011-04-24T14:38:52.000Z</time>
      </trkpt>
      <trkpt lat="45.49215" lon="4.66931">
        <ele>561</ele>
        <time>2011-04-24T14:38:56.000Z</time>
      </trkpt>
      <trkpt lat="45.49213" lon="4.66936">
        <ele>562</ele>
        <time>2011-04-24T14:39:01.000Z</time>
      </trkpt>
      <trkpt lat="45.49212" lon="4.66939">
        <ele>562</ele>
        <time>2011-04-24T14:39:03.000Z</time>
      </trkpt>
      <trkpt lat="45.49206" lon="4.66951">
        <ele>563.40002441406</ele>
        <time>2011-04-24T14:39:15.000Z</time>
      </trkpt>
      <trkpt lat="45.49206" lon="4.66951">
        <ele>563.40002441406</ele>
        <time>2011-04-24T14:39:16.000Z</time>
      </trkpt>
      <trkpt lat="45.492" lon="4.66963">
        <ele>563.79998779297</ele>
        <time>2011-04-24T14:39:23.000Z</time>
      </trkpt>
      <trkpt lat="45.49191" lon="4.66982">
        <ele>565.20001220703</ele>
        <time>2011-04-24T14:39:35.000Z</time>
      </trkpt>
      <trkpt lat="45.49184" lon="4.67">
        <ele>566.79998779297</ele>
        <time>2011-04-24T14:39:48.000Z</time>
      </trkpt>
      <trkpt lat="45.49179" lon="4.67018">
        <ele>568.59997558594</ele>
        <time>2011-04-24T14:39:59.000Z</time>
      </trkpt>
      <trkpt lat="45.49173" lon="4.67032">
        <ele>569.20001220703</ele>
        <time>2011-04-24T14:40:08.000Z</time>
      </trkpt>
      <trkpt lat="45.49172" lon="4.67036">
        <ele>570.20001220703</ele>
        <time>2011-04-24T14:40:11.000Z</time>
      </trkpt>
      <trkpt lat="45.4917" lon="4.6704">
        <ele>570.59997558594</ele>
        <time>2011-04-24T14:40:15.000Z</time>
      </trkpt>
      <trkpt lat="45.49167" lon="4.67047">
        <ele>570.59997558594</ele>
        <time>2011-04-24T14:40:19.000Z</time>
      </trkpt>
      <trkpt lat="45.49161" lon="4.67057">
        <ele>572</ele>
        <time>2011-04-24T14:40:27.000Z</time>
      </trkpt>
      <trkpt lat="45.49158" lon="4.67062">
        <ele>573</ele>
        <time>2011-04-24T14:40:32.000Z</time>
      </trkpt>
      <trkpt lat="45.49148" lon="4.67078">
        <ele>574.40002441406</ele>
        <time>2011-04-24T14:40:45.000Z</time>
      </trkpt>
      <trkpt lat="45.49147" lon="4.67082">
        <ele>574.40002441406</ele>
        <time>2011-04-24T14:40:48.000Z</time>
      </trkpt>
      <trkpt lat="45.49155" lon="4.67086">
        <ele>574</ele>
        <time>2011-04-24T14:41:00.000Z</time>
      </trkpt>
      <trkpt lat="45.49155" lon="4.67086">
        <ele>574</ele>
        <time>2011-04-24T14:41:27.000Z</time>
      </trkpt>
      <trkpt lat="45.49155" lon="4.67086">
        <ele>574.40002441406</ele>
        <time>2011-04-24T14:42:06.000Z</time>
      </trkpt>
      <trkpt lat="45.49155" lon="4.67086">
        <ele>574.40002441406</ele>
        <time>2011-04-24T14:42:41.000Z</time>
      </trkpt>
      <trkpt lat="45.49155" lon="4.67087">
        <ele>575.40002441406</ele>
        <time>2011-04-24T14:42:51.000Z</time>
      </trkpt>
      <trkpt lat="45.49156" lon="4.67089">
        <ele>575.79998779297</ele>
        <time>2011-04-24T14:42:53.000Z</time>
      </trkpt>
      <trkpt lat="45.49169" lon="4.67092">
        <ele>575.79998779297</ele>
        <time>2011-04-24T14:43:08.000Z</time>
      </trkpt>
      <trkpt lat="45.49169" lon="4.67094">
        <ele>575.40002441406</ele>
        <time>2011-04-24T14:43:23.000Z</time>
      </trkpt>
      <trkpt lat="45.49169" lon="4.67094">
        <ele>575.79998779297</ele>
        <time>2011-04-24T14:43:44.000Z</time>
      </trkpt>
      <trkpt lat="45.49169" lon="4.67092">
        <ele>575.79998779297</ele>
        <time>2011-04-24T14:43:59.000Z</time>
      </trkpt>
      <trkpt lat="45.49169" lon="4.67092">
        <ele>575.40002441406</ele>
        <time>2011-04-24T14:44:15.000Z</time>
      </trkpt>
      <trkpt lat="45.49169" lon="4.67092">
        <ele>575.40002441406</ele>
        <time>2011-04-24T14:44:44.000Z</time>
      </trkpt>
      <trkpt lat="45.49169" lon="4.67092">
        <ele>575.40002441406</ele>
        <time>2011-04-24T14:45:20.000Z</time>
      </trkpt>
      <trkpt lat="45.49169" lon="4.67092">
        <ele>574</ele>
        <time>2011-04-24T14:46:00.000Z</time>
      </trkpt>
      <trkpt lat="45.49169" lon="4.67092">
        <ele>577.40002441406</ele>
        <time>2011-04-24T14:46:05.000Z</time>
      </trkpt>
      <trkpt lat="45.49169" lon="4.67092">
        <ele>571</ele>
        <time>2011-04-24T14:46:11.000Z</time>
      </trkpt>
      <trkpt lat="45.49169" lon="4.67092">
        <ele>575.79998779297</ele>
        <time>2011-04-24T14:46:12.000Z</time>
      </trkpt>
      <trkpt lat="45.49169" lon="4.67092">
        <ele>575.40002441406</ele>
        <time>2011-04-24T14:46:38.000Z</time>
      </trkpt>
      <trkpt lat="45.49169" lon="4.67092">
        <ele>575.79998779297</ele>
        <time>2011-04-24T14:47:03.000Z</time>
      </trkpt>
      <trkpt lat="45.49169" lon="4.67092">
        <ele>575</ele>
        <time>2011-04-24T14:47:08.000Z</time>
      </trkpt>
      <trkpt lat="45.49168" lon="4.6709">
        <ele>575.40002441406</ele>
        <time>2011-04-24T14:47:26.000Z</time>
      </trkpt>
      <trkpt lat="45.49168" lon="4.67094">
        <ele>575.79998779297</ele>
        <time>2011-04-24T14:47:42.000Z</time>
      </trkpt>
      <trkpt lat="45.49171" lon="4.67095">
        <ele>576.40002441406</ele>
        <time>2011-04-24T14:47:57.000Z</time>
      </trkpt>
      <trkpt lat="45.49193" lon="4.67113">
        <ele>577.40002441406</ele>
        <time>2011-04-24T14:48:15.000Z</time>
      </trkpt>
      <trkpt lat="45.49194" lon="4.67114">
        <ele>577.40002441406</ele>
        <time>2011-04-24T14:48:16.000Z</time>
      </trkpt>
      <trkpt lat="45.49216" lon="4.67142">
        <ele>576.79998779297</ele>
        <time>2011-04-24T14:48:32.000Z</time>
      </trkpt>
      <trkpt lat="45.4922" lon="4.67151">
        <ele>578.20001220703</ele>
        <time>2011-04-24T14:48:45.000Z</time>
      </trkpt>
      <trkpt lat="45.49241" lon="4.67175">
        <ele>577.79998779297</ele>
        <time>2011-04-24T14:48:57.000Z</time>
      </trkpt>
      <trkpt lat="45.49251" lon="4.67184">
        <ele>578.20001220703</ele>
        <time>2011-04-24T14:49:10.000Z</time>
      </trkpt>
      <trkpt lat="45.49261" lon="4.67192">
        <ele>579.20001220703</ele>
        <time>2011-04-24T14:49:22.000Z</time>
      </trkpt>
      <trkpt lat="45.49263" lon="4.67191">
        <ele>578.20001220703</ele>
        <time>2011-04-24T14:49:39.000Z</time>
      </trkpt>
      <trkpt lat="45.49263" lon="4.67191">
        <ele>578.79998779297</ele>
        <time>2011-04-24T14:50:02.000Z</time>
      </trkpt>
      <trkpt lat="45.49264" lon="4.67193">
        <ele>578.79998779297</ele>
        <time>2011-04-24T14:50:27.000Z</time>
      </trkpt>
      <trkpt lat="45.49265" lon="4.67193">
        <ele>578.79998779297</ele>
        <time>2011-04-24T14:50:28.000Z</time>
      </trkpt>
      <trkpt lat="45.49276" lon="4.67205">
        <ele>579.79998779297</ele>
        <time>2011-04-24T14:50:42.000Z</time>
      </trkpt>
      <trkpt lat="45.49276" lon="4.67205">
        <ele>579.79998779297</ele>
        <time>2011-04-24T14:50:44.000Z</time>
      </trkpt>
      <trkpt lat="45.49282" lon="4.67209">
        <ele>579.79998779297</ele>
        <time>2011-04-24T14:50:49.000Z</time>
      </trkpt>
      <trkpt lat="45.49302" lon="4.67227">
        <ele>581.59997558594</ele>
        <time>2011-04-24T14:51:06.000Z</time>
      </trkpt>
      <trkpt lat="45.49321" lon="4.67239">
        <ele>582.20001220703</ele>
        <time>2011-04-24T14:51:21.000Z</time>
      </trkpt>
      <trkpt lat="45.4934" lon="4.67254">
        <ele>583</ele>
        <time>2011-04-24T14:51:37.000Z</time>
      </trkpt>
      <trkpt lat="45.49357" lon="4.67276">
        <ele>583</ele>
        <time>2011-04-24T14:51:53.000Z</time>
      </trkpt>
      <trkpt lat="45.49367" lon="4.67301">
        <ele>583.59997558594</ele>
        <time>2011-04-24T14:52:09.000Z</time>
      </trkpt>
      <trkpt lat="45.49373" lon="4.67316">
        <ele>583.59997558594</ele>
        <time>2011-04-24T14:52:19.000Z</time>
      </trkpt>
      <trkpt lat="45.49374" lon="4.67327">
        <ele>583.59997558594</ele>
        <time>2011-04-24T14:52:28.000Z</time>
      </trkpt>
      <trkpt lat="45.49374" lon="4.67331">
        <ele>583.59997558594</ele>
        <time>2011-04-24T14:52:30.000Z</time>
      </trkpt>
      <trkpt lat="45.49376" lon="4.67336">
        <ele>582.59997558594</ele>
        <time>2011-04-24T14:52:41.000Z</time>
      </trkpt>
      <trkpt lat="45.4938" lon="4.67368">
        <ele>581.59997558594</ele>
        <time>2011-04-24T14:52:58.000Z</time>
      </trkpt>
      <trkpt lat="45.4938" lon="4.67369">
        <ele>581.59997558594</ele>
        <time>2011-04-24T14:52:59.000Z</time>
      </trkpt>
      <trkpt lat="45.49381" lon="4.67397">
        <ele>580.20001220703</ele>
        <time>2011-04-24T14:53:15.000Z</time>
      </trkpt>
      <trkpt lat="45.4938" lon="4.67405">
        <ele>579.20001220703</ele>
        <time>2011-04-24T14:53:23.000Z</time>
      </trkpt>
      <trkpt lat="45.49379" lon="4.67414">
        <ele>579.20001220703</ele>
        <time>2011-04-24T14:53:28.000Z</time>
      </trkpt>
      <trkpt lat="45.49375" lon="4.67446">
        <ele>578.79998779297</ele>
        <time>2011-04-24T14:53:46.000Z</time>
      </trkpt>
      <trkpt lat="45.49363" lon="4.67468">
        <ele>577.40002441406</ele>
        <time>2011-04-24T14:54:01.000Z</time>
      </trkpt>
      <trkpt lat="45.49353" lon="4.67486">
        <ele>574.40002441406</ele>
        <time>2011-04-24T14:54:13.000Z</time>
      </trkpt>
      <trkpt lat="45.49353" lon="4.67512">
        <ele>573</ele>
        <time>2011-04-24T14:54:27.000Z</time>
      </trkpt>
      <trkpt lat="45.49361" lon="4.67539">
        <ele>569.59997558594</ele>
        <time>2011-04-24T14:54:41.000Z</time>
      </trkpt>
      <trkpt lat="45.4936" lon="4.67571">
        <ele>568.20001220703</ele>
        <time>2011-04-24T14:54:56.000Z</time>
      </trkpt>
      <trkpt lat="45.49364" lon="4.67598">
        <ele>568.20001220703</ele>
        <time>2011-04-24T14:55:14.000Z</time>
      </trkpt>
      <trkpt lat="45.49367" lon="4.67601">
        <ele>567.20001220703</ele>
        <time>2011-04-24T14:55:18.000Z</time>
      </trkpt>
      <trkpt lat="45.49376" lon="4.67628">
        <ele>564.40002441406</ele>
        <time>2011-04-24T14:55:35.000Z</time>
      </trkpt>
      <trkpt lat="45.49393" lon="4.67645">
        <ele>562.40002441406</ele>
        <time>2011-04-24T14:55:51.000Z</time>
      </trkpt>
      <trkpt lat="45.49411" lon="4.67668">
        <ele>559</ele>
        <time>2011-04-24T14:56:08.000Z</time>
      </trkpt>
      <trkpt lat="45.49422" lon="4.67686">
        <ele>556.59997558594</ele>
        <time>2011-04-24T14:56:21.000Z</time>
      </trkpt>
      <trkpt lat="45.49421" lon="4.67692">
        <ele>555.59997558594</ele>
        <time>2011-04-24T14:56:25.000Z</time>
      </trkpt>
      <trkpt lat="45.49426" lon="4.677">
        <ele>553.79998779297</ele>
        <time>2011-04-24T14:56:30.000Z</time>
      </trkpt>
      <trkpt lat="45.49444" lon="4.67715">
        <ele>553.20001220703</ele>
        <time>2011-04-24T14:56:43.000Z</time>
      </trkpt>
      <trkpt lat="45.49454" lon="4.67733">
        <ele>550</ele>
        <time>2011-04-24T14:56:57.000Z</time>
      </trkpt>
      <trkpt lat="45.49462" lon="4.67743">
        <ele>549</ele>
        <time>2011-04-24T14:57:05.000Z</time>
      </trkpt>
      <trkpt lat="45.4948" lon="4.6777">
        <ele>546.59997558594</ele>
        <time>2011-04-24T14:57:21.000Z</time>
      </trkpt>
      <trkpt lat="45.49488" lon="4.67791">
        <ele>542.59997558594</ele>
        <time>2011-04-24T14:57:35.000Z</time>
      </trkpt>
      <trkpt lat="45.49492" lon="4.67805">
        <ele>541.20001220703</ele>
        <time>2011-04-24T14:57:42.000Z</time>
      </trkpt>
      <trkpt lat="45.495" lon="4.67814">
        <ele>539.40002441406</ele>
        <time>2011-04-24T14:57:50.000Z</time>
      </trkpt>
      <trkpt lat="45.49505" lon="4.67818">
        <ele>539.40002441406</ele>
        <time>2011-04-24T14:57:55.000Z</time>
      </trkpt>
      <trkpt lat="45.49525" lon="4.6783">
        <ele>537.79998779297</ele>
        <time>2011-04-24T14:58:12.000Z</time>
      </trkpt>
      <trkpt lat="45.49532" lon="4.6784">
        <ele>535</ele>
        <time>2011-04-24T14:58:25.000Z</time>
      </trkpt>
      <trkpt lat="45.49548" lon="4.67854">
        <ele>532.20001220703</ele>
        <time>2011-04-24T14:58:37.000Z</time>
      </trkpt>
      <trkpt lat="45.49575" lon="4.67877">
        <ele>528.79998779297</ele>
        <time>2011-04-24T14:58:51.000Z</time>
      </trkpt>
      <trkpt lat="45.49583" lon="4.67886">
        <ele>527.40002441406</ele>
        <time>2011-04-24T14:58:59.000Z</time>
      </trkpt>
      <trkpt lat="45.49597" lon="4.67912">
        <ele>524.40002441406</ele>
        <time>2011-04-24T14:59:15.000Z</time>
      </trkpt>
      <trkpt lat="45.49601" lon="4.67937">
        <ele>521</ele>
        <time>2011-04-24T14:59:27.000Z</time>
      </trkpt>
      <trkpt lat="45.49621" lon="4.67949">
        <ele>518.20001220703</ele>
        <time>2011-04-24T14:59:41.000Z</time>
      </trkpt>
      <trkpt lat="45.49629" lon="4.6795">
        <ele>516.79998779297</ele>
        <time>2011-04-24T14:59:46.000Z</time>
      </trkpt>
      <trkpt lat="45.49632" lon="4.67961">
        <ele>514.79998779297</ele>
        <time>2011-04-24T14:59:53.000Z</time>
      </trkpt>
      <trkpt lat="45.4963" lon="4.67964">
        <ele>513.79998779297</ele>
        <time>2011-04-24T14:59:56.000Z</time>
      </trkpt>
      <trkpt lat="45.49634" lon="4.68003">
        <ele>511</ele>
        <time>2011-04-24T15:00:10.000Z</time>
      </trkpt>
      <trkpt lat="45.49638" lon="4.68009">
        <ele>510.60000610352</ele>
        <time>2011-04-24T15:00:23.000Z</time>
      </trkpt>
      <trkpt lat="45.49638" lon="4.68009">
        <ele>509.60000610352</ele>
        <time>2011-04-24T15:00:39.000Z</time>
      </trkpt>
      <trkpt lat="45.49638" lon="4.68009">
        <ele>510</ele>
        <time>2011-04-24T15:01:09.000Z</time>
      </trkpt>
      <trkpt lat="45.49639" lon="4.68012">
        <ele>511.39999389648</ele>
        <time>2011-04-24T15:01:31.000Z</time>
      </trkpt>
      <trkpt lat="45.49648" lon="4.6803">
        <ele>511.39999389648</ele>
        <time>2011-04-24T15:01:40.000Z</time>
      </trkpt>
      <trkpt lat="45.49661" lon="4.68053">
        <ele>510</ele>
        <time>2011-04-24T15:01:55.000Z</time>
      </trkpt>
      <trkpt lat="45.49672" lon="4.68082">
        <ele>511</ele>
        <time>2011-04-24T15:02:10.000Z</time>
      </trkpt>
      <trkpt lat="45.49676" lon="4.68101">
        <ele>511</ele>
        <time>2011-04-24T15:02:24.000Z</time>
      </trkpt>
      <trkpt lat="45.49677" lon="4.68126">
        <ele>511.39999389648</ele>
        <time>2011-04-24T15:02:37.000Z</time>
      </trkpt>
      <trkpt lat="45.49678" lon="4.68137">
        <ele>512.40002441406</ele>
        <time>2011-04-24T15:02:49.000Z</time>
      </trkpt>
      <trkpt lat="45.49678" lon="4.68153">
        <ele>513.40002441406</ele>
        <time>2011-04-24T15:02:59.000Z</time>
      </trkpt>
      <trkpt lat="45.49676" lon="4.6818">
        <ele>514.40002441406</ele>
        <time>2011-04-24T15:03:12.000Z</time>
      </trkpt>
      <trkpt lat="45.4968" lon="4.68202">
        <ele>513</ele>
        <time>2011-04-24T15:03:24.000Z</time>
      </trkpt>
      <trkpt lat="45.49683" lon="4.68219">
        <ele>511.39999389648</ele>
        <time>2011-04-24T15:03:36.000Z</time>
      </trkpt>
      <trkpt lat="45.49682" lon="4.68231">
        <ele>510.60000610352</ele>
        <time>2011-04-24T15:03:42.000Z</time>
      </trkpt>
      <trkpt lat="45.49682" lon="4.68244">
        <ele>511</ele>
        <time>2011-04-24T15:03:47.000Z</time>
      </trkpt>
      <trkpt lat="45.49677" lon="4.68262">
        <ele>508.60000610352</ele>
        <time>2011-04-24T15:04:00.000Z</time>
      </trkpt>
      <trkpt lat="45.49667" lon="4.68292">
        <ele>507.60000610352</ele>
        <time>2011-04-24T15:04:13.000Z</time>
      </trkpt>
      <trkpt lat="45.49666" lon="4.68296">
        <ele>506.60000610352</ele>
        <time>2011-04-24T15:04:20.000Z</time>
      </trkpt>
      <trkpt lat="45.49659" lon="4.6833">
        <ele>506.20001220703</ele>
        <time>2011-04-24T15:04:35.000Z</time>
      </trkpt>
      <trkpt lat="45.49662" lon="4.68333">
        <ele>506.60000610352</ele>
        <time>2011-04-24T15:04:38.000Z</time>
      </trkpt>
      <trkpt lat="45.49666" lon="4.68335">
        <ele>506.60000610352</ele>
        <time>2011-04-24T15:04:41.000Z</time>
      </trkpt>
      <trkpt lat="45.49684" lon="4.68338">
        <ele>506.20001220703</ele>
        <time>2011-04-24T15:04:56.000Z</time>
      </trkpt>
      <trkpt lat="45.49706" lon="4.68347">
        <ele>506.20001220703</ele>
        <time>2011-04-24T15:05:11.000Z</time>
      </trkpt>
      <trkpt lat="45.49729" lon="4.6836">
        <ele>504.79998779297</ele>
        <time>2011-04-24T15:05:25.000Z</time>
      </trkpt>
      <trkpt lat="45.49742" lon="4.68362">
        <ele>504.79998779297</ele>
        <time>2011-04-24T15:05:38.000Z</time>
      </trkpt>
      <trkpt lat="45.49756" lon="4.68371">
        <ele>503.20001220703</ele>
        <time>2011-04-24T15:05:51.000Z</time>
      </trkpt>
      <trkpt lat="45.4976" lon="4.68373">
        <ele>502.39999389648</ele>
        <time>2011-04-24T15:05:56.000Z</time>
      </trkpt>
      <trkpt lat="45.49768" lon="4.6838">
        <ele>500.79998779297</ele>
        <time>2011-04-24T15:06:02.000Z</time>
      </trkpt>
      <trkpt lat="45.49778" lon="4.68388">
        <ele>500</ele>
        <time>2011-04-24T15:06:08.000Z</time>
      </trkpt>
      <trkpt lat="45.49803" lon="4.6838">
        <ele>499.39999389648</ele>
        <time>2011-04-24T15:06:24.000Z</time>
      </trkpt>
      <trkpt lat="45.49826" lon="4.68382">
        <ele>499</ele>
        <time>2011-04-24T15:06:37.000Z</time>
      </trkpt>
      <trkpt lat="45.49837" lon="4.68378">
        <ele>498.39999389648</ele>
        <time>2011-04-24T15:06:48.000Z</time>
      </trkpt>
      <trkpt lat="45.49859" lon="4.68384">
        <ele>499</ele>
        <time>2011-04-24T15:07:03.000Z</time>
      </trkpt>
      <trkpt lat="45.49863" lon="4.68389">
        <ele>498.39999389648</ele>
        <time>2011-04-24T15:07:09.000Z</time>
      </trkpt>
      <trkpt lat="45.49878" lon="4.6841">
        <ele>498.39999389648</ele>
        <time>2011-04-24T15:07:24.000Z</time>
      </trkpt>
      <trkpt lat="45.4988" lon="4.68421">
        <ele>499.39999389648</ele>
        <time>2011-04-24T15:07:32.000Z</time>
      </trkpt>
      <trkpt lat="45.49897" lon="4.68435">
        <ele>499.39999389648</ele>
        <time>2011-04-24T15:07:43.000Z</time>
      </trkpt>
      <trkpt lat="45.49901" lon="4.68437">
        <ele>500</ele>
        <time>2011-04-24T15:07:48.000Z</time>
      </trkpt>
      <trkpt lat="45.4991" lon="4.68456">
        <ele>500.39999389648</ele>
        <time>2011-04-24T15:07:58.000Z</time>
      </trkpt>
      <trkpt lat="45.49924" lon="4.68477">
        <ele>500.39999389648</ele>
        <time>2011-04-24T15:08:12.000Z</time>
      </trkpt>
      <trkpt lat="45.49933" lon="4.68493">
        <ele>501.39999389648</ele>
        <time>2011-04-24T15:08:25.000Z</time>
      </trkpt>
      <trkpt lat="45.49944" lon="4.68514">
        <ele>501.79998779297</ele>
        <time>2011-04-24T15:08:38.000Z</time>
      </trkpt>
      <trkpt lat="45.49953" lon="4.68525">
        <ele>501.79998779297</ele>
        <time>2011-04-24T15:08:48.000Z</time>
      </trkpt>
      <trkpt lat="45.49958" lon="4.68535">
        <ele>501.39999389648</ele>
        <time>2011-04-24T15:08:54.000Z</time>
      </trkpt>
      <trkpt lat="45.49961" lon="4.6854">
        <ele>501.79998779297</ele>
        <time>2011-04-24T15:08:57.000Z</time>
      </trkpt>
      <trkpt lat="45.49973" lon="4.68558">
        <ele>501.79998779297</ele>
        <time>2011-04-24T15:09:12.000Z</time>
      </trkpt>
      <trkpt lat="45.49983" lon="4.6858">
        <ele>501.79998779297</ele>
        <time>2011-04-24T15:09:24.000Z</time>
      </trkpt>
      <trkpt lat="45.50001" lon="4.68598">
        <ele>502.39999389648</ele>
        <time>2011-04-24T15:09:37.000Z</time>
      </trkpt>
      <trkpt lat="45.50007" lon="4.68602">
        <ele>502.79998779297</ele>
        <time>2011-04-24T15:09:42.000Z</time>
      </trkpt>
      <trkpt lat="45.50021" lon="4.68626">
        <ele>502.39999389648</ele>
        <time>2011-04-24T15:09:57.000Z</time>
      </trkpt>
      <trkpt lat="45.50026" lon="4.68628">
        <ele>502.39999389648</ele>
        <time>2011-04-24T15:10:03.000Z</time>
      </trkpt>
      <trkpt lat="45.50043" lon="4.68649">
        <ele>501.79998779297</ele>
        <time>2011-04-24T15:10:19.000Z</time>
      </trkpt>
      <trkpt lat="45.50056" lon="4.68661">
        <ele>501.79998779297</ele>
        <time>2011-04-24T15:10:32.000Z</time>
      </trkpt>
      <trkpt lat="45.50057" lon="4.68662">
        <ele>501.79998779297</ele>
        <time>2011-04-24T15:10:34.000Z</time>
      </trkpt>
      <trkpt lat="45.50063" lon="4.68668">
        <ele>501.39999389648</ele>
        <time>2011-04-24T15:10:38.000Z</time>
      </trkpt>
      <trkpt lat="45.50088" lon="4.68685">
        <ele>500.39999389648</ele>
        <time>2011-04-24T15:10:54.000Z</time>
      </trkpt>
      <trkpt lat="45.50103" lon="4.687">
        <ele>499.39999389648</ele>
        <time>2011-04-24T15:11:08.000Z</time>
      </trkpt>
      <trkpt lat="45.50112" lon="4.68706">
        <ele>498.39999389648</ele>
        <time>2011-04-24T15:11:20.000Z</time>
      </trkpt>
      <trkpt lat="45.50115" lon="4.68709">
        <ele>498.39999389648</ele>
        <time>2011-04-24T15:11:22.000Z</time>
      </trkpt>
      <trkpt lat="45.50121" lon="4.68714">
        <ele>498</ele>
        <time>2011-04-24T15:11:26.000Z</time>
      </trkpt>
      <trkpt lat="45.50142" lon="4.6872">
        <ele>496</ele>
        <time>2011-04-24T15:11:43.000Z</time>
      </trkpt>
      <trkpt lat="45.50155" lon="4.68733">
        <ele>494.60000610352</ele>
        <time>2011-04-24T15:11:55.000Z</time>
      </trkpt>
      <trkpt lat="45.50175" lon="4.68749">
        <ele>492.79998779297</ele>
        <time>2011-04-24T15:12:10.000Z</time>
      </trkpt>
      <trkpt lat="45.50182" lon="4.68756">
        <ele>492.20001220703</ele>
        <time>2011-04-24T15:12:25.000Z</time>
      </trkpt>
      <trkpt lat="45.50184" lon="4.6876">
        <ele>492.20001220703</ele>
        <time>2011-04-24T15:12:29.000Z</time>
      </trkpt>
      <trkpt lat="45.50193" lon="4.68775">
        <ele>490.79998779297</ele>
        <time>2011-04-24T15:12:43.000Z</time>
      </trkpt>
      <trkpt lat="45.50207" lon="4.68782">
        <ele>489.79998779297</ele>
        <time>2011-04-24T15:12:56.000Z</time>
      </trkpt>
      <trkpt lat="45.50216" lon="4.68794">
        <ele>488.79998779297</ele>
        <time>2011-04-24T15:13:08.000Z</time>
      </trkpt>
      <trkpt lat="45.50219" lon="4.68799">
        <ele>488.79998779297</ele>
        <time>2011-04-24T15:13:11.000Z</time>
      </trkpt>
      <trkpt lat="45.50236" lon="4.68823">
        <ele>487</ele>
        <time>2011-04-24T15:13:25.000Z</time>
      </trkpt>
      <trkpt lat="45.5024" lon="4.68835">
        <ele>486.39999389648</ele>
        <time>2011-04-24T15:13:37.000Z</time>
      </trkpt>
      <trkpt lat="45.5024" lon="4.68837">
        <ele>486</ele>
        <time>2011-04-24T15:13:38.000Z</time>
      </trkpt>
      <trkpt lat="45.5024" lon="4.6886">
        <ele>486</ele>
        <time>2011-04-24T15:13:50.000Z</time>
      </trkpt>
      <trkpt lat="45.5025" lon="4.68872">
        <ele>484.60000610352</ele>
        <time>2011-04-24T15:14:03.000Z</time>
      </trkpt>
      <trkpt lat="45.5026" lon="4.68882">
        <ele>481.60000610352</ele>
        <time>2011-04-24T15:14:16.000Z</time>
      </trkpt>
      <trkpt lat="45.50271" lon="4.68909">
        <ele>478.20001220703</ele>
        <time>2011-04-24T15:14:32.000Z</time>
      </trkpt>
      <trkpt lat="45.50274" lon="4.6892">
        <ele>476.39999389648</ele>
        <time>2011-04-24T15:14:42.000Z</time>
      </trkpt>
      <trkpt lat="45.50281" lon="4.6893">
        <ele>475.39999389648</ele>
        <time>2011-04-24T15:14:57.000Z</time>
      </trkpt>
      <trkpt lat="45.50282" lon="4.68928">
        <ele>475</ele>
        <time>2011-04-24T15:14:59.000Z</time>
      </trkpt>
      <trkpt lat="45.50286" lon="4.6892">
        <ele>474.39999389648</ele>
        <time>2011-04-24T15:15:03.000Z</time>
      </trkpt>
      <trkpt lat="45.50299" lon="4.68906">
        <ele>484.60000610352</ele>
        <time>2011-04-24T15:15:12.000Z</time>
      </trkpt>
      <trkpt lat="45.503" lon="4.68905">
        <ele>474.39999389648</ele>
        <time>2011-04-24T15:15:13.000Z</time>
      </trkpt>
      <trkpt lat="45.503" lon="4.68904">
        <ele>470.20001220703</ele>
        <time>2011-04-24T15:15:14.000Z</time>
      </trkpt>
      <trkpt lat="45.503" lon="4.68903">
        <ele>475</ele>
        <time>2011-04-24T15:15:15.000Z</time>
      </trkpt>
      <trkpt lat="45.50312" lon="4.6888">
        <ele>473</ele>
        <time>2011-04-24T15:15:32.000Z</time>
      </trkpt>
      <trkpt lat="45.50336" lon="4.68863">
        <ele>472</ele>
        <time>2011-04-24T15:15:47.000Z</time>
      </trkpt>
      <trkpt lat="45.50348" lon="4.68856">
        <ele>470.60000610352</ele>
        <time>2011-04-24T15:15:59.000Z</time>
      </trkpt>
      <trkpt lat="45.50351" lon="4.68859">
        <ele>470.60000610352</ele>
        <time>2011-04-24T15:16:12.000Z</time>
      </trkpt>
      <trkpt lat="45.50353" lon="4.68855">
        <ele>470.20001220703</ele>
        <time>2011-04-24T15:16:27.000Z</time>
      </trkpt>
      <trkpt lat="45.5037" lon="4.68847">
        <ele>468.60000610352</ele>
        <time>2011-04-24T15:16:40.000Z</time>
      </trkpt>
      <trkpt lat="45.50388" lon="4.68842">
        <ele>467.79998779297</ele>
        <time>2011-04-24T15:16:57.000Z</time>
      </trkpt>
      <trkpt lat="45.50405" lon="4.68837">
        <ele>466.20001220703</ele>
        <time>2011-04-24T15:17:14.000Z</time>
      </trkpt>
      <trkpt lat="45.50412" lon="4.68834">
        <ele>465.79998779297</ele>
        <time>2011-04-24T15:17:29.000Z</time>
      </trkpt>
      <trkpt lat="45.50415" lon="4.68833">
        <ele>465.39999389648</ele>
        <time>2011-04-24T15:17:52.000Z</time>
      </trkpt>
      <trkpt lat="45.5042" lon="4.68831">
        <ele>465.39999389648</ele>
        <time>2011-04-24T15:17:56.000Z</time>
      </trkpt>
      <trkpt lat="45.50429" lon="4.68832">
        <ele>464.79998779297</ele>
        <time>2011-04-24T15:18:09.000Z</time>
      </trkpt>
      <trkpt lat="45.50432" lon="4.6883">
        <ele>464.39999389648</ele>
        <time>2011-04-24T15:18:27.000Z</time>
      </trkpt>
      <trkpt lat="45.50436" lon="4.68827">
        <ele>464.39999389648</ele>
        <time>2011-04-24T15:18:31.000Z</time>
      </trkpt>
      <trkpt lat="45.50444" lon="4.68825">
        <ele>463.39999389648</ele>
        <time>2011-04-24T15:18:38.000Z</time>
      </trkpt>
      <trkpt lat="45.5045" lon="4.68823">
        <ele>463.39999389648</ele>
        <time>2011-04-24T15:18:43.000Z</time>
      </trkpt>
      <trkpt lat="45.50453" lon="4.68822">
        <ele>463</ele>
        <time>2011-04-24T15:18:48.000Z</time>
      </trkpt>
      <trkpt lat="45.50455" lon="4.68822">
        <ele>462.39999389648</ele>
        <time>2011-04-24T15:18:52.000Z</time>
      </trkpt>
      <trkpt lat="45.50465" lon="4.68825">
        <ele>462</ele>
        <time>2011-04-24T15:19:02.000Z</time>
      </trkpt>
      <trkpt lat="45.50481" lon="4.68825">
        <ele>461</ele>
        <time>2011-04-24T15:19:13.000Z</time>
      </trkpt>
      <trkpt lat="45.50494" lon="4.68829">
        <ele>460.60000610352</ele>
        <time>2011-04-24T15:19:21.000Z</time>
      </trkpt>
      <trkpt lat="45.50503" lon="4.68838">
        <ele>461</ele>
        <time>2011-04-24T15:19:37.000Z</time>
      </trkpt>
      <trkpt lat="45.50506" lon="4.68836">
        <ele>460</ele>
        <time>2011-04-24T15:19:44.000Z</time>
      </trkpt>
      <trkpt lat="45.50512" lon="4.68832">
        <ele>460</ele>
        <time>2011-04-24T15:20:08.000Z</time>
      </trkpt>
      <trkpt lat="45.50516" lon="4.68829">
        <ele>459</ele>
        <time>2011-04-24T15:20:20.000Z</time>
      </trkpt>
      <trkpt lat="45.50529" lon="4.68831">
        <ele>459</ele>
        <time>2011-04-24T15:20:35.000Z</time>
      </trkpt>
      <trkpt lat="45.50526" lon="4.68827">
        <ele>458.60000610352</ele>
        <time>2011-04-24T15:20:46.000Z</time>
      </trkpt>
      <trkpt lat="45.50507" lon="4.68839">
        <ele>460.60000610352</ele>
        <time>2011-04-24T15:21:03.000Z</time>
      </trkpt>
      <trkpt lat="45.50503" lon="4.68848">
        <ele>462</ele>
        <time>2011-04-24T15:21:06.000Z</time>
      </trkpt>
      <trkpt lat="45.50501" lon="4.68852">
        <ele>462.39999389648</ele>
        <time>2011-04-24T15:21:09.000Z</time>
      </trkpt>
      <trkpt lat="45.50499" lon="4.68887">
        <ele>461</ele>
        <time>2011-04-24T15:21:29.000Z</time>
      </trkpt>
      <trkpt lat="45.50501" lon="4.68893">
        <ele>461.39999389648</ele>
        <time>2011-04-24T15:21:32.000Z</time>
      </trkpt>
      <trkpt lat="45.50512" lon="4.6892">
        <ele>460</ele>
        <time>2011-04-24T15:21:49.000Z</time>
      </trkpt>
      <trkpt lat="45.50514" lon="4.68938">
        <ele>459</ele>
        <time>2011-04-24T15:22:00.000Z</time>
      </trkpt>
      <trkpt lat="45.50522" lon="4.68952">
        <ele>458.60000610352</ele>
        <time>2011-04-24T15:22:20.000Z</time>
      </trkpt>
      <trkpt lat="45.50522" lon="4.68952">
        <ele>458.60000610352</ele>
        <time>2011-04-24T15:22:21.000Z</time>
      </trkpt>
      <trkpt lat="45.50528" lon="4.68958">
        <ele>458.60000610352</ele>
        <time>2011-04-24T15:22:25.000Z</time>
      </trkpt>
      <trkpt lat="45.50549" lon="4.68967">
        <ele>457.20001220703</ele>
        <time>2011-04-24T15:22:44.000Z</time>
      </trkpt>
      <trkpt lat="45.50553" lon="4.68973">
        <ele>457.20001220703</ele>
        <time>2011-04-24T15:22:52.000Z</time>
      </trkpt>
      <trkpt lat="45.50557" lon="4.68975">
        <ele>456.20001220703</ele>
        <time>2011-04-24T15:22:56.000Z</time>
      </trkpt>
      <trkpt lat="45.50569" lon="4.68986">
        <ele>454.79998779297</ele>
        <time>2011-04-24T15:23:07.000Z</time>
      </trkpt>
      <trkpt lat="45.50585" lon="4.68999">
        <ele>452.79998779297</ele>
        <time>2011-04-24T15:23:22.000Z</time>
      </trkpt>
      <trkpt lat="45.50602" lon="4.69012">
        <ele>451</ele>
        <time>2011-04-24T15:23:39.000Z</time>
      </trkpt>
      <trkpt lat="45.50621" lon="4.69027">
        <ele>448.39999389648</ele>
        <time>2011-04-24T15:23:56.000Z</time>
      </trkpt>
      <trkpt lat="45.50637" lon="4.69037">
        <ele>446.60000610352</ele>
        <time>2011-04-24T15:24:11.000Z</time>
      </trkpt>
      <trkpt lat="45.50652" lon="4.69047">
        <ele>443.20001220703</ele>
        <time>2011-04-24T15:24:25.000Z</time>
      </trkpt>
      <trkpt lat="45.50655" lon="4.6905">
        <ele>442.79998779297</ele>
        <time>2011-04-24T15:24:29.000Z</time>
      </trkpt>
      <trkpt lat="45.50671" lon="4.69057">
        <ele>439.39999389648</ele>
        <time>2011-04-24T15:24:43.000Z</time>
      </trkpt>
      <trkpt lat="45.50689" lon="4.69066">
        <ele>437.39999389648</ele>
        <time>2011-04-24T15:24:59.000Z</time>
      </trkpt>
      <trkpt lat="45.50709" lon="4.69073">
        <ele>434.60000610352</ele>
        <time>2011-04-24T15:25:14.000Z</time>
      </trkpt>
      <trkpt lat="45.50724" lon="4.69076">
        <ele>431.60000610352</ele>
        <time>2011-04-24T15:25:28.000Z</time>
      </trkpt>
      <trkpt lat="45.50734" lon="4.69079">
        <ele>429.20001220703</ele>
        <time>2011-04-24T15:25:37.000Z</time>
      </trkpt>
      <trkpt lat="45.50742" lon="4.6908">
        <ele>427.79998779297</ele>
        <time>2011-04-24T15:25:43.000Z</time>
      </trkpt>
      <trkpt lat="45.50752" lon="4.6908">
        <ele>425</ele>
        <time>2011-04-24T15:25:53.000Z</time>
      </trkpt>
      <trkpt lat="45.50772" lon="4.69083">
        <ele>421.60000610352</ele>
        <time>2011-04-24T15:26:09.000Z</time>
      </trkpt>
      <trkpt lat="45.50773" lon="4.69083">
        <ele>422</ele>
        <time>2011-04-24T15:26:10.000Z</time>
      </trkpt>
      <trkpt lat="45.50795" lon="4.69084">
        <ele>417.79998779297</ele>
        <time>2011-04-24T15:26:27.000Z</time>
      </trkpt>
      <trkpt lat="45.50807" lon="4.69086">
        <ele>414.79998779297</ele>
        <time>2011-04-24T15:26:34.000Z</time>
      </trkpt>
      <trkpt lat="45.50808" lon="4.69086">
        <ele>414.79998779297</ele>
        <time>2011-04-24T15:26:35.000Z</time>
      </trkpt>
      <trkpt lat="45.5081" lon="4.69086">
        <ele>413.79998779297</ele>
        <time>2011-04-24T15:26:38.000Z</time>
      </trkpt>
      <trkpt lat="45.50821" lon="4.69086">
        <ele>412</ele>
        <time>2011-04-24T15:26:47.000Z</time>
      </trkpt>
      <trkpt lat="45.50844" lon="4.69093">
        <ele>408.60000610352</ele>
        <time>2011-04-24T15:27:03.000Z</time>
      </trkpt>
      <trkpt lat="45.50858" lon="4.691">
        <ele>407.20001220703</ele>
        <time>2011-04-24T15:27:15.000Z</time>
      </trkpt>
      <trkpt lat="45.50867" lon="4.69105">
        <ele>403.79998779297</ele>
        <time>2011-04-24T15:27:24.000Z</time>
      </trkpt>
      <trkpt lat="45.50871" lon="4.69108">
        <ele>402.79998779297</ele>
        <time>2011-04-24T15:27:28.000Z</time>
      </trkpt>
      <trkpt lat="45.50876" lon="4.69114">
        <ele>400.39999389648</ele>
        <time>2011-04-24T15:27:33.000Z</time>
      </trkpt>
      <trkpt lat="45.5088" lon="4.69118">
        <ele>399</ele>
        <time>2011-04-24T15:27:38.000Z</time>
      </trkpt>
      <trkpt lat="45.50887" lon="4.69127">
        <ele>397.60000610352</ele>
        <time>2011-04-24T15:27:46.000Z</time>
      </trkpt>
      <trkpt lat="45.50892" lon="4.69134">
        <ele>396.60000610352</ele>
        <time>2011-04-24T15:27:51.000Z</time>
      </trkpt>
      <trkpt lat="45.50898" lon="4.69141">
        <ele>394.20001220703</ele>
        <time>2011-04-24T15:27:57.000Z</time>
      </trkpt>
      <trkpt lat="45.50911" lon="4.69159">
        <ele>390.79998779297</ele>
        <time>2011-04-24T15:28:10.000Z</time>
      </trkpt>
      <trkpt lat="45.50914" lon="4.69165">
        <ele>389.79998779297</ele>
        <time>2011-04-24T15:28:14.000Z</time>
      </trkpt>
      <trkpt lat="45.50919" lon="4.69175">
        <ele>388.39999389648</ele>
        <time>2011-04-24T15:28:21.000Z</time>
      </trkpt>
      <trkpt lat="45.50919" lon="4.69184">
        <ele>386.39999389648</ele>
        <time>2011-04-24T15:28:26.000Z</time>
      </trkpt>
      <trkpt lat="45.50915" lon="4.69197">
        <ele>385</ele>
        <time>2011-04-24T15:28:33.000Z</time>
      </trkpt>
      <trkpt lat="45.50918" lon="4.69204">
        <ele>383.20001220703</ele>
        <time>2011-04-24T15:28:39.000Z</time>
      </trkpt>
      <trkpt lat="45.50932" lon="4.69215">
        <ele>378.79998779297</ele>
        <time>2011-04-24T15:28:51.000Z</time>
      </trkpt>
      <trkpt lat="45.50934" lon="4.69218">
        <ele>377.79998779297</ele>
        <time>2011-04-24T15:28:54.000Z</time>
      </trkpt>
      <trkpt lat="45.50937" lon="4.6922">
        <ele>376.79998779297</ele>
        <time>2011-04-24T15:28:57.000Z</time>
      </trkpt>
      <trkpt lat="45.50954" lon="4.69237">
        <ele>373.60000610352</ele>
        <time>2011-04-24T15:29:13.000Z</time>
      </trkpt>
      <trkpt lat="45.50956" lon="4.69246">
        <ele>373</ele>
        <time>2011-04-24T15:29:18.000Z</time>
      </trkpt>
      <trkpt lat="45.50958" lon="4.69257">
        <ele>373</ele>
        <time>2011-04-24T15:29:26.000Z</time>
      </trkpt>
      <trkpt lat="45.5096" lon="4.69259">
        <ele>373.60000610352</ele>
        <time>2011-04-24T15:29:28.000Z</time>
      </trkpt>
      <trkpt lat="45.50977" lon="4.69276">
        <ele>373</ele>
        <time>2011-04-24T15:29:42.000Z</time>
      </trkpt>
      <trkpt lat="45.5098" lon="4.69276">
        <ele>375</ele>
        <time>2011-04-24T15:29:45.000Z</time>
      </trkpt>
      <trkpt lat="45.50985" lon="4.69277">
        <ele>374</ele>
        <time>2011-04-24T15:29:49.000Z</time>
      </trkpt>
      <trkpt lat="45.50994" lon="4.69276">
        <ele>376.39999389648</ele>
        <time>2011-04-24T15:29:57.000Z</time>
      </trkpt>
      <trkpt lat="45.50999" lon="4.69276">
        <ele>376.79998779297</ele>
        <time>2011-04-24T15:30:01.000Z</time>
      </trkpt>
      <trkpt lat="45.51005" lon="4.69277">
        <ele>376.79998779297</ele>
        <time>2011-04-24T15:30:06.000Z</time>
      </trkpt>
      <trkpt lat="45.51028" lon="4.69278">
        <ele>377.39999389648</ele>
        <time>2011-04-24T15:30:24.000Z</time>
      </trkpt>
      <trkpt lat="45.51032" lon="4.69278">
        <ele>376.39999389648</ele>
        <time>2011-04-24T15:30:26.000Z</time>
      </trkpt>
      <trkpt lat="45.51047" lon="4.6928">
        <ele>377.39999389648</ele>
        <time>2011-04-24T15:30:37.000Z</time>
      </trkpt>
      <trkpt lat="45.51067" lon="4.69286">
        <ele>378.79998779297</ele>
        <time>2011-04-24T15:30:54.000Z</time>
      </trkpt>
      <trkpt lat="45.51087" lon="4.6929">
        <ele>380.79998779297</ele>
        <time>2011-04-24T15:31:10.000Z</time>
      </trkpt>
      <trkpt lat="45.51091" lon="4.69293">
        <ele>382.60000610352</ele>
        <time>2011-04-24T15:31:16.000Z</time>
      </trkpt>
      <trkpt lat="45.51113" lon="4.69302">
        <ele>384.60000610352</ele>
        <time>2011-04-24T15:31:32.000Z</time>
      </trkpt>
      <trkpt lat="45.51117" lon="4.69305">
        <ele>380.20001220703</ele>
        <time>2011-04-24T15:31:37.000Z</time>
      </trkpt>
      <trkpt lat="45.51119" lon="4.69306">
        <ele>385</ele>
        <time>2011-04-24T15:31:38.000Z</time>
      </trkpt>
      <trkpt lat="45.51132" lon="4.69313">
        <ele>387</ele>
        <time>2011-04-24T15:31:52.000Z</time>
      </trkpt>
      <trkpt lat="45.51133" lon="4.69314">
        <ele>387</ele>
        <time>2011-04-24T15:31:53.000Z</time>
      </trkpt>
      <trkpt lat="45.5114" lon="4.6932">
        <ele>388.39999389648</ele>
        <time>2011-04-24T15:32:00.000Z</time>
      </trkpt>
      <trkpt lat="45.51152" lon="4.69327">
        <ele>389.39999389648</ele>
        <time>2011-04-24T15:32:09.000Z</time>
      </trkpt>
      <trkpt lat="45.51173" lon="4.69341">
        <ele>389.79998779297</ele>
        <time>2011-04-24T15:32:25.000Z</time>
      </trkpt>
      <trkpt lat="45.51183" lon="4.6935">
        <ele>390.39999389648</ele>
        <time>2011-04-24T15:32:39.000Z</time>
      </trkpt>
      <trkpt lat="45.51185" lon="4.69351">
        <ele>390.79998779297</ele>
        <time>2011-04-24T15:32:41.000Z</time>
      </trkpt>
      <trkpt lat="45.51192" lon="4.69359">
        <ele>390.79998779297</ele>
        <time>2011-04-24T15:32:46.000Z</time>
      </trkpt>
      <trkpt lat="45.51207" lon="4.69377">
        <ele>391.20001220703</ele>
        <time>2011-04-24T15:33:00.000Z</time>
      </trkpt>
      <trkpt lat="45.51215" lon="4.69386">
        <ele>390.79998779297</ele>
        <time>2011-04-24T15:33:09.000Z</time>
      </trkpt>
      <trkpt lat="45.51219" lon="4.69387">
        <ele>390.79998779297</ele>
        <time>2011-04-24T15:33:13.000Z</time>
      </trkpt>
      <trkpt lat="45.51225" lon="4.69391">
        <ele>390.79998779297</ele>
        <time>2011-04-24T15:33:17.000Z</time>
      </trkpt>
      <trkpt lat="45.51236" lon="4.69401">
        <ele>391.20001220703</ele>
        <time>2011-04-24T15:33:30.000Z</time>
      </trkpt>
      <trkpt lat="45.51237" lon="4.69402">
        <ele>390.79998779297</ele>
        <time>2011-04-24T15:33:32.000Z</time>
      </trkpt>
      <trkpt lat="45.51263" lon="4.69417">
        <ele>391.20001220703</ele>
        <time>2011-04-24T15:33:46.000Z</time>
      </trkpt>
      <trkpt lat="45.51282" lon="4.69428">
        <ele>391.20001220703</ele>
        <time>2011-04-24T15:34:00.000Z</time>
      </trkpt>
      <trkpt lat="45.51296" lon="4.69437">
        <ele>391.20001220703</ele>
        <time>2011-04-24T15:34:15.000Z</time>
      </trkpt>
      <trkpt lat="45.51298" lon="4.69438">
        <ele>391.79998779297</ele>
        <time>2011-04-24T15:34:18.000Z</time>
      </trkpt>
      <trkpt lat="45.51304" lon="4.69443">
        <ele>391.20001220703</ele>
        <time>2011-04-24T15:34:22.000Z</time>
      </trkpt>
      <trkpt lat="45.51318" lon="4.69455">
        <ele>389.39999389648</ele>
        <time>2011-04-24T15:34:33.000Z</time>
      </trkpt>
      <trkpt lat="45.51326" lon="4.69455">
        <ele>388</ele>
        <time>2011-04-24T15:34:43.000Z</time>
      </trkpt>
      <trkpt lat="45.51337" lon="4.69478">
        <ele>387</ele>
        <time>2011-04-24T15:34:53.000Z</time>
      </trkpt>
      <trkpt lat="45.51343" lon="4.69486">
        <ele>386</ele>
        <time>2011-04-24T15:34:59.000Z</time>
      </trkpt>
      <trkpt lat="45.51346" lon="4.6949">
        <ele>385.60000610352</ele>
        <time>2011-04-24T15:35:02.000Z</time>
      </trkpt>
      <trkpt lat="45.51355" lon="4.69506">
        <ele>383.60000610352</ele>
        <time>2011-04-24T15:35:17.000Z</time>
      </trkpt>
      <trkpt lat="45.51362" lon="4.69513">
        <ele>382.60000610352</ele>
        <time>2011-04-24T15:35:22.000Z</time>
      </trkpt>
      <trkpt lat="45.51379" lon="4.69537">
        <ele>380.79998779297</ele>
        <time>2011-04-24T15:35:38.000Z</time>
      </trkpt>
      <trkpt lat="45.51389" lon="4.69556">
        <ele>378.39999389648</ele>
        <time>2011-04-24T15:35:52.000Z</time>
      </trkpt>
      <trkpt lat="45.51389" lon="4.69557">
        <ele>377.79998779297</ele>
        <time>2011-04-24T15:35:57.000Z</time>
      </trkpt>
      <trkpt lat="45.51389" lon="4.69561">
        <ele>377.79998779297</ele>
        <time>2011-04-24T15:35:59.000Z</time>
      </trkpt>
      <trkpt lat="45.51389" lon="4.69575">
        <ele>376.79998779297</ele>
        <time>2011-04-24T15:36:04.000Z</time>
      </trkpt>
      <trkpt lat="45.5139" lon="4.69591">
        <ele>376.39999389648</ele>
        <time>2011-04-24T15:36:11.000Z</time>
      </trkpt>
      <trkpt lat="45.51398" lon="4.69619">
        <ele>378.39999389648</ele>
        <time>2011-04-24T15:36:26.000Z</time>
      </trkpt>
      <trkpt lat="45.514" lon="4.69621">
        <ele>375.39999389648</ele>
        <time>2011-04-24T15:36:27.000Z</time>
      </trkpt>
      <trkpt lat="45.51408" lon="4.69647">
        <ele>376</ele>
        <time>2011-04-24T15:36:38.000Z</time>
      </trkpt>
      <trkpt lat="45.51414" lon="4.69666">
        <ele>376.79998779297</ele>
        <time>2011-04-24T15:36:53.000Z</time>
      </trkpt>
      <trkpt lat="45.51415" lon="4.69687">
        <ele>378.39999389648</ele>
        <time>2011-04-24T15:37:05.000Z</time>
      </trkpt>
      <trkpt lat="45.51415" lon="4.69691">
        <ele>379.79998779297</ele>
        <time>2011-04-24T15:37:12.000Z</time>
      </trkpt>
      <trkpt lat="45.51427" lon="4.69722">
        <ele>381.60000610352</ele>
        <time>2011-04-24T15:37:27.000Z</time>
      </trkpt>
      <trkpt lat="45.51427" lon="4.69725">
        <ele>382.60000610352</ele>
        <time>2011-04-24T15:37:29.000Z</time>
      </trkpt>
      <trkpt lat="45.5143" lon="4.69733">
        <ele>383.20001220703</ele>
        <time>2011-04-24T15:37:34.000Z</time>
      </trkpt>
      <trkpt lat="45.51437" lon="4.69753">
        <ele>385</ele>
        <time>2011-04-24T15:37:50.000Z</time>
      </trkpt>
      <trkpt lat="45.51444" lon="4.69767">
        <ele>388.39999389648</ele>
        <time>2011-04-24T15:38:04.000Z</time>
      </trkpt>
      <trkpt lat="45.51445" lon="4.69768">
        <ele>388.39999389648</ele>
        <time>2011-04-24T15:38:06.000Z</time>
      </trkpt>
      <trkpt lat="45.51447" lon="4.69774">
        <ele>389.39999389648</ele>
        <time>2011-04-24T15:38:11.000Z</time>
      </trkpt>
      <trkpt lat="45.51449" lon="4.6978">
        <ele>389.79998779297</ele>
        <time>2011-04-24T15:38:17.000Z</time>
      </trkpt>
      <trkpt lat="45.51462" lon="4.69798">
        <ele>392.20001220703</ele>
        <time>2011-04-24T15:38:32.000Z</time>
      </trkpt>
      <trkpt lat="45.51464" lon="4.69802">
        <ele>392.20001220703</ele>
        <time>2011-04-24T15:38:36.000Z</time>
      </trkpt>
      <trkpt lat="45.51471" lon="4.69812">
        <ele>393.60000610352</ele>
        <time>2011-04-24T15:38:45.000Z</time>
      </trkpt>
      <trkpt lat="45.51486" lon="4.6983">
        <ele>395.60000610352</ele>
        <time>2011-04-24T15:39:00.000Z</time>
      </trkpt>
      <trkpt lat="45.515" lon="4.69844">
        <ele>397</ele>
        <time>2011-04-24T15:39:15.000Z</time>
      </trkpt>
      <trkpt lat="45.51507" lon="4.69848">
        <ele>397.60000610352</ele>
        <time>2011-04-24T15:39:22.000Z</time>
      </trkpt>
      <trkpt lat="45.51527" lon="4.69858">
        <ele>399</ele>
        <time>2011-04-24T15:39:36.000Z</time>
      </trkpt>
      <trkpt lat="45.51543" lon="4.69865">
        <ele>401.79998779297</ele>
        <time>2011-04-24T15:39:54.000Z</time>
      </trkpt>
      <trkpt lat="45.51543" lon="4.69865">
        <ele>401.79998779297</ele>
        <time>2011-04-24T15:39:55.000Z</time>
      </trkpt>
      <trkpt lat="45.5155" lon="4.69869">
        <ele>402.79998779297</ele>
        <time>2011-04-24T15:40:01.000Z</time>
      </trkpt>
      <trkpt lat="45.51558" lon="4.69873">
        <ele>403.79998779297</ele>
        <time>2011-04-24T15:40:06.000Z</time>
      </trkpt>
      <trkpt lat="45.51582" lon="4.69886">
        <ele>404.79998779297</ele>
        <time>2011-04-24T15:40:21.000Z</time>
      </trkpt>
      <trkpt lat="45.51586" lon="4.6989">
        <ele>406.20001220703</ele>
        <time>2011-04-24T15:40:27.000Z</time>
      </trkpt>
      <trkpt lat="45.516" lon="4.69901">
        <ele>407.60000610352</ele>
        <time>2011-04-24T15:40:39.000Z</time>
      </trkpt>
      <trkpt lat="45.51617" lon="4.69916">
        <ele>407.60000610352</ele>
        <time>2011-04-24T15:40:53.000Z</time>
      </trkpt>
      <trkpt lat="45.51629" lon="4.69927">
        <ele>409</ele>
        <time>2011-04-24T15:41:06.000Z</time>
      </trkpt>
      <trkpt lat="45.51634" lon="4.69933">
        <ele>409</ele>
        <time>2011-04-24T15:41:12.000Z</time>
      </trkpt>
      <trkpt lat="45.5164" lon="4.69937">
        <ele>409.60000610352</ele>
        <time>2011-04-24T15:41:19.000Z</time>
      </trkpt>
      <trkpt lat="45.51657" lon="4.69949">
        <ele>410</ele>
        <time>2011-04-24T15:41:31.000Z</time>
      </trkpt>
      <trkpt lat="45.51673" lon="4.69964">
        <ele>410</ele>
        <time>2011-04-24T15:41:41.000Z</time>
      </trkpt>
      <trkpt lat="45.51681" lon="4.69975">
        <ele>410.60000610352</ele>
        <time>2011-04-24T15:41:53.000Z</time>
      </trkpt>
      <trkpt lat="45.517" lon="4.69991">
        <ele>410</ele>
        <time>2011-04-24T15:42:07.000Z</time>
      </trkpt>
      <trkpt lat="45.51701" lon="4.69992">
        <ele>410.60000610352</ele>
        <time>2011-04-24T15:42:21.000Z</time>
      </trkpt>
      <trkpt lat="45.51703" lon="4.69992">
        <ele>411</ele>
        <time>2011-04-24T15:42:40.000Z</time>
      </trkpt>
      <trkpt lat="45.51703" lon="4.69992">
        <ele>410</ele>
        <time>2011-04-24T15:42:44.000Z</time>
      </trkpt>
      <trkpt lat="45.5172" lon="4.70011">
        <ele>410</ele>
        <time>2011-04-24T15:42:58.000Z</time>
      </trkpt>
      <trkpt lat="45.51731" lon="4.70021">
        <ele>410</ele>
        <time>2011-04-24T15:43:11.000Z</time>
      </trkpt>
      <trkpt lat="45.51753" lon="4.70048">
        <ele>409</ele>
        <time>2011-04-24T15:43:27.000Z</time>
      </trkpt>
      <trkpt lat="45.5176" lon="4.70054">
        <ele>409.60000610352</ele>
        <time>2011-04-24T15:43:39.000Z</time>
      </trkpt>
      <trkpt lat="45.51764" lon="4.70057">
        <ele>408.60000610352</ele>
        <time>2011-04-24T15:43:42.000Z</time>
      </trkpt>
      <trkpt lat="45.51777" lon="4.70071">
        <ele>409.60000610352</ele>
        <time>2011-04-24T15:43:51.000Z</time>
      </trkpt>
      <trkpt lat="45.51783" lon="4.70076">
        <ele>408.60000610352</ele>
        <time>2011-04-24T15:44:05.000Z</time>
      </trkpt>
      <trkpt lat="45.51781" lon="4.70077">
        <ele>409</ele>
        <time>2011-04-24T15:44:24.000Z</time>
      </trkpt>
      <trkpt lat="45.51781" lon="4.70077">
        <ele>403.79998779297</ele>
        <time>2011-04-24T15:44:45.000Z</time>
      </trkpt>
      <trkpt lat="45.51781" lon="4.70077">
        <ele>409.60000610352</ele>
        <time>2011-04-24T15:44:46.000Z</time>
      </trkpt>
      <trkpt lat="45.51781" lon="4.70077">
        <ele>408.60000610352</ele>
        <time>2011-04-24T15:45:05.000Z</time>
      </trkpt>
      <trkpt lat="45.51782" lon="4.70077">
        <ele>409</ele>
        <time>2011-04-24T15:45:22.000Z</time>
      </trkpt>
      <trkpt lat="45.51781" lon="4.70077">
        <ele>409.60000610352</ele>
        <time>2011-04-24T15:45:58.000Z</time>
      </trkpt>
      <trkpt lat="45.51781" lon="4.70077">
        <ele>408.60000610352</ele>
        <time>2011-04-24T15:46:24.000Z</time>
      </trkpt>
      <trkpt lat="45.51781" lon="4.70077">
        <ele>409</ele>
        <time>2011-04-24T15:46:37.000Z</time>
      </trkpt>
    </trkseg>
  </trk>
</gpx>